<?xml version="1.0" encoding="UTF-8" standalone="no" ?>
<gpx xmlns="http://www.topografix.com/GPX/1/1" xmlns:xsi="http://www.w3.org/2001/XMLSchema-instance" xsi:schemaLocation="http://www.topografix.com/GPX/1/1 http://www.topografix.com/GPX/1/1/gpx.xsd" version="1.1" creator="VisuGPX - https://www.visugpx.com">
  <metadata>
    <name>Circuit 61 km Les Herbiers_Les Herbiers édité par cth85.com</name>
    <desc><![CDATA[Circuit 61 km passant par: Les Herbiers, St Paul en Pareds, la chambaudière, l\'épau, St Michel Mont Mercure, Les Epesses, Mallièvre, Teize-Vents, St Laurent sur Sèvre, St Malo du Bois, Chambretaud, La Gaubretière, Les Herbiers.]]></desc>
  </metadata>
  <trk>
    <name><![CDATA[61_11_11_13 on GPSies.com]]></name>
    <trkseg>
      <trkpt lat="46.8643" lon="-1.00945">
        <ele>117</ele>
        <time>2011-11-11T19:14:15Z</time>
      </trkpt>
      <trkpt lat="46.86423" lon="-1.00933">
        <ele>117</ele>
        <time>2011-11-11T19:14:16Z</time>
      </trkpt>
      <trkpt lat="46.86409" lon="-1.00953">
        <ele>117</ele>
        <time>2011-11-11T19:14:20Z</time>
      </trkpt>
      <trkpt lat="46.86396" lon="-1.00992">
        <ele>116</ele>
        <time>2011-11-11T19:14:24Z</time>
      </trkpt>
      <trkpt lat="46.86403" lon="-1.00996">
        <ele>116</ele>
        <time>2011-11-11T19:14:26Z</time>
      </trkpt>
      <trkpt lat="46.86405" lon="-1.01007">
        <ele>116</ele>
        <time>2011-11-11T19:14:27Z</time>
      </trkpt>
      <trkpt lat="46.86396" lon="-1.01016">
        <ele>116</ele>
        <time>2011-11-11T19:14:28Z</time>
      </trkpt>
      <trkpt lat="46.86389" lon="-1.01008">
        <ele>116</ele>
        <time>2011-11-11T19:14:30Z</time>
      </trkpt>
      <trkpt lat="46.86384" lon="-1.01021">
        <ele>116</ele>
        <time>2011-11-11T19:14:32Z</time>
      </trkpt>
      <trkpt lat="46.86361" lon="-1.01206">
        <ele>119</ele>
        <time>2011-11-11T19:14:52Z</time>
      </trkpt>
      <trkpt lat="46.86356" lon="-1.0122">
        <ele>118</ele>
        <time>2011-11-11T19:14:54Z</time>
      </trkpt>
      <trkpt lat="46.86346" lon="-1.0123">
        <ele>118</ele>
        <time>2011-11-11T19:14:56Z</time>
      </trkpt>
      <trkpt lat="46.86345" lon="-1.01247">
        <ele>118</ele>
        <time>2011-11-11T19:14:58Z</time>
      </trkpt>
      <trkpt lat="46.86339" lon="-1.01252">
        <ele>118</ele>
        <time>2011-11-11T19:14:59Z</time>
      </trkpt>
      <trkpt lat="46.8633" lon="-1.01251">
        <ele>118</ele>
        <time>2011-11-11T19:15:00Z</time>
      </trkpt>
      <trkpt lat="46.86324" lon="-1.01235">
        <ele>118</ele>
        <time>2011-11-11T19:15:02Z</time>
      </trkpt>
      <trkpt lat="46.86199" lon="-1.01144">
        <ele>117</ele>
        <time>2011-11-11T19:15:25Z</time>
      </trkpt>
      <trkpt lat="46.86189" lon="-1.01142">
        <ele>117</ele>
        <time>2011-11-11T19:15:26Z</time>
      </trkpt>
      <trkpt lat="46.86182" lon="-1.01147">
        <ele>117</ele>
        <time>2011-11-11T19:15:27Z</time>
      </trkpt>
      <trkpt lat="46.86178" lon="-1.0114">
        <ele>117</ele>
        <time>2011-11-11T19:15:28Z</time>
      </trkpt>
      <trkpt lat="46.86179" lon="-1.01134">
        <ele>117</ele>
        <time>2011-11-11T19:15:29Z</time>
      </trkpt>
      <trkpt lat="46.86156" lon="-1.01109">
        <ele>117</ele>
        <time>2011-11-11T19:15:34Z</time>
      </trkpt>
      <trkpt lat="46.86113" lon="-1.01074">
        <ele>118</ele>
        <time>2011-11-11T19:15:42Z</time>
      </trkpt>
      <trkpt lat="46.85992" lon="-1.00998">
        <ele>114</ele>
        <time>2011-11-11T19:16:03Z</time>
      </trkpt>
      <trkpt lat="46.85992" lon="-1.00998">
        <ele>114</ele>
        <time>2011-11-11T19:16:03Z</time>
      </trkpt>
      <trkpt lat="46.8589" lon="-1.00949">
        <ele>113</ele>
        <time>2011-11-11T19:16:20Z</time>
      </trkpt>
      <trkpt lat="46.85859" lon="-1.00937">
        <ele>112</ele>
        <time>2011-11-11T19:16:25Z</time>
      </trkpt>
      <trkpt lat="46.85845" lon="-1.0094">
        <ele>112</ele>
        <time>2011-11-11T19:16:27Z</time>
      </trkpt>
      <trkpt lat="46.85833" lon="-1.00917">
        <ele>112</ele>
        <time>2011-11-11T19:16:30Z</time>
      </trkpt>
      <trkpt lat="46.8582" lon="-1.00904">
        <ele>112</ele>
        <time>2011-11-11T19:16:33Z</time>
      </trkpt>
      <trkpt lat="46.85688" lon="-1.00825">
        <ele>111</ele>
        <time>2011-11-11T19:16:56Z</time>
      </trkpt>
      <trkpt lat="46.85576" lon="-1.0072">
        <ele>110</ele>
        <time>2011-11-11T19:17:17Z</time>
      </trkpt>
      <trkpt lat="46.85483" lon="-1.00653">
        <ele>108</ele>
        <time>2011-11-11T19:17:34Z</time>
      </trkpt>
      <trkpt lat="46.85372" lon="-1.00599">
        <ele>109</ele>
        <time>2011-11-11T19:17:52Z</time>
      </trkpt>
      <trkpt lat="46.85289" lon="-1.0057">
        <ele>110</ele>
        <time>2011-11-11T19:18:06Z</time>
      </trkpt>
      <trkpt lat="46.85265" lon="-1.00555">
        <ele>110</ele>
        <time>2011-11-11T19:18:10Z</time>
      </trkpt>
      <trkpt lat="46.8508" lon="-1.00423">
        <ele>108</ele>
        <time>2011-11-11T19:18:43Z</time>
      </trkpt>
      <trkpt lat="46.85074" lon="-1.00424">
        <ele>108</ele>
        <time>2011-11-11T19:18:44Z</time>
      </trkpt>
      <trkpt lat="46.85058" lon="-1.00411">
        <ele>108</ele>
        <time>2011-11-11T19:18:47Z</time>
      </trkpt>
      <trkpt lat="46.84996" lon="-1.00386">
        <ele>112</ele>
        <time>2011-11-11T19:18:57Z</time>
      </trkpt>
      <trkpt lat="46.84957" lon="-1.00379">
        <ele>114</ele>
        <time>2011-11-11T19:19:04Z</time>
      </trkpt>
      <trkpt lat="46.84879" lon="-1.00378">
        <ele>114</ele>
        <time>2011-11-11T19:19:16Z</time>
      </trkpt>
      <trkpt lat="46.8484" lon="-1.00385">
        <ele>115</ele>
        <time>2011-11-11T19:19:22Z</time>
      </trkpt>
      <trkpt lat="46.84657" lon="-1.00446">
        <ele>116</ele>
        <time>2011-11-11T19:19:53Z</time>
      </trkpt>
      <trkpt lat="46.84657" lon="-1.00446">
        <ele>116</ele>
        <time>2011-11-11T19:19:53Z</time>
      </trkpt>
      <trkpt lat="46.84587" lon="-1.00465">
        <ele>114</ele>
        <time>2011-11-11T19:20:04Z</time>
      </trkpt>
      <trkpt lat="46.84526" lon="-1.00469">
        <ele>111</ele>
        <time>2011-11-11T19:20:14Z</time>
      </trkpt>
      <trkpt lat="46.84504" lon="-1.00481">
        <ele>111</ele>
        <time>2011-11-11T19:20:17Z</time>
      </trkpt>
      <trkpt lat="46.84497" lon="-1.00493">
        <ele>111</ele>
        <time>2011-11-11T19:20:19Z</time>
      </trkpt>
      <trkpt lat="46.84483" lon="-1.00496">
        <ele>111</ele>
        <time>2011-11-11T19:20:21Z</time>
      </trkpt>
      <trkpt lat="46.8447" lon="-1.0048">
        <ele>111</ele>
        <time>2011-11-11T19:20:24Z</time>
      </trkpt>
      <trkpt lat="46.84448" lon="-1.00466">
        <ele>111</ele>
        <time>2011-11-11T19:20:28Z</time>
      </trkpt>
      <trkpt lat="46.84422" lon="-1.00463">
        <ele>111</ele>
        <time>2011-11-11T19:20:32Z</time>
      </trkpt>
      <trkpt lat="46.83184" lon="-1.00368">
        <ele>122</ele>
        <time>2011-11-11T19:23:51Z</time>
      </trkpt>
      <trkpt lat="46.83184" lon="-1.00368">
        <ele>122</ele>
        <time>2011-11-11T19:23:51Z</time>
      </trkpt>
      <trkpt lat="46.82947" lon="-1.00346">
        <ele>112</ele>
        <time>2011-11-11T19:24:29Z</time>
      </trkpt>
      <trkpt lat="46.82899" lon="-1.00325">
        <ele>112</ele>
        <time>2011-11-11T19:24:37Z</time>
      </trkpt>
      <trkpt lat="46.82866" lon="-1.00299">
        <ele>110</ele>
        <time>2011-11-11T19:24:43Z</time>
      </trkpt>
      <trkpt lat="46.82822" lon="-1.00243">
        <ele>111</ele>
        <time>2011-11-11T19:24:52Z</time>
      </trkpt>
      <trkpt lat="46.82792" lon="-1.00183">
        <ele>112</ele>
        <time>2011-11-11T19:25:00Z</time>
      </trkpt>
      <trkpt lat="46.82645" lon="-0.99741">
        <ele>102</ele>
        <time>2011-11-11T19:25:54Z</time>
      </trkpt>
      <trkpt lat="46.82615" lon="-0.99681">
        <ele>92</ele>
        <time>2011-11-11T19:26:02Z</time>
      </trkpt>
      <trkpt lat="46.82589" lon="-0.99656">
        <ele>92</ele>
        <time>2011-11-11T19:26:07Z</time>
      </trkpt>
      <trkpt lat="46.82564" lon="-0.99643">
        <ele>92</ele>
        <time>2011-11-11T19:26:11Z</time>
      </trkpt>
      <trkpt lat="46.82403" lon="-0.99618">
        <ele>103</ele>
        <time>2011-11-11T19:26:37Z</time>
      </trkpt>
      <trkpt lat="46.82385" lon="-0.99611">
        <ele>103</ele>
        <time>2011-11-11T19:26:40Z</time>
      </trkpt>
      <trkpt lat="46.82358" lon="-0.99588">
        <ele>105</ele>
        <time>2011-11-11T19:26:45Z</time>
      </trkpt>
      <trkpt lat="46.8235" lon="-0.99575">
        <ele>105</ele>
        <time>2011-11-11T19:26:47Z</time>
      </trkpt>
      <trkpt lat="46.8232" lon="-0.99501">
        <ele>110</ele>
        <time>2011-11-11T19:26:57Z</time>
      </trkpt>
      <trkpt lat="46.82306" lon="-0.9948">
        <ele>110</ele>
        <time>2011-11-11T19:27:00Z</time>
      </trkpt>
      <trkpt lat="46.82252" lon="-0.99446">
        <ele>115</ele>
        <time>2011-11-11T19:27:09Z</time>
      </trkpt>
      <trkpt lat="46.82256" lon="-0.99383">
        <ele>115</ele>
        <time>2011-11-11T19:27:16Z</time>
      </trkpt>
      <trkpt lat="46.82256" lon="-0.99383">
        <ele>115</ele>
        <time>2011-11-11T19:27:16Z</time>
      </trkpt>
      <trkpt lat="46.82252" lon="-0.99344">
        <ele>116</ele>
        <time>2011-11-11T19:27:21Z</time>
      </trkpt>
      <trkpt lat="46.82233" lon="-0.99249">
        <ele>118</ele>
        <time>2011-11-11T19:27:31Z</time>
      </trkpt>
      <trkpt lat="46.82246" lon="-0.99219">
        <ele>118</ele>
        <time>2011-11-11T19:27:35Z</time>
      </trkpt>
      <trkpt lat="46.82371" lon="-0.98851">
        <ele>117</ele>
        <time>2011-11-11T19:28:20Z</time>
      </trkpt>
      <trkpt lat="46.82394" lon="-0.98766">
        <ele>117</ele>
        <time>2011-11-11T19:28:30Z</time>
      </trkpt>
      <trkpt lat="46.82398" lon="-0.98728">
        <ele>117</ele>
        <time>2011-11-11T19:28:35Z</time>
      </trkpt>
      <trkpt lat="46.82396" lon="-0.98698">
        <ele>117</ele>
        <time>2011-11-11T19:28:38Z</time>
      </trkpt>
      <trkpt lat="46.8238" lon="-0.98637">
        <ele>117</ele>
        <time>2011-11-11T19:28:45Z</time>
      </trkpt>
      <trkpt lat="46.82357" lon="-0.98576">
        <ele>113</ele>
        <time>2011-11-11T19:28:53Z</time>
      </trkpt>
      <trkpt lat="46.82352" lon="-0.9854">
        <ele>112</ele>
        <time>2011-11-11T19:28:57Z</time>
      </trkpt>
      <trkpt lat="46.8237" lon="-0.98512">
        <ele>112</ele>
        <time>2011-11-11T19:29:01Z</time>
      </trkpt>
      <trkpt lat="46.82395" lon="-0.98438">
        <ele>113</ele>
        <time>2011-11-11T19:29:10Z</time>
      </trkpt>
      <trkpt lat="46.82408" lon="-0.98412">
        <ele>113</ele>
        <time>2011-11-11T19:29:13Z</time>
      </trkpt>
      <trkpt lat="46.82406" lon="-0.98389">
        <ele>113</ele>
        <time>2011-11-11T19:29:16Z</time>
      </trkpt>
      <trkpt lat="46.82411" lon="-0.98344">
        <ele>111</ele>
        <time>2011-11-11T19:29:21Z</time>
      </trkpt>
      <trkpt lat="46.82482" lon="-0.98156">
        <ele>114</ele>
        <time>2011-11-11T19:29:45Z</time>
      </trkpt>
      <trkpt lat="46.82504" lon="-0.9805">
        <ele>116</ele>
        <time>2011-11-11T19:29:57Z</time>
      </trkpt>
      <trkpt lat="46.82508" lon="-0.98015">
        <ele>118</ele>
        <time>2011-11-11T19:30:01Z</time>
      </trkpt>
      <trkpt lat="46.82508" lon="-0.97949">
        <ele>118</ele>
        <time>2011-11-11T19:30:08Z</time>
      </trkpt>
      <trkpt lat="46.82501" lon="-0.9788">
        <ele>118</ele>
        <time>2011-11-11T19:30:15Z</time>
      </trkpt>
      <trkpt lat="46.82479" lon="-0.97739">
        <ele>118</ele>
        <time>2011-11-11T19:30:31Z</time>
      </trkpt>
      <trkpt lat="46.82456" lon="-0.97645">
        <ele>116</ele>
        <time>2011-11-11T19:30:42Z</time>
      </trkpt>
      <trkpt lat="46.82457" lon="-0.97607">
        <ele>118</ele>
        <time>2011-11-11T19:30:46Z</time>
      </trkpt>
      <trkpt lat="46.82485" lon="-0.97521">
        <ele>120</ele>
        <time>2011-11-11T19:30:57Z</time>
      </trkpt>
      <trkpt lat="46.82492" lon="-0.97477">
        <ele>120</ele>
        <time>2011-11-11T19:31:02Z</time>
      </trkpt>
      <trkpt lat="46.82491" lon="-0.97437">
        <ele>122</ele>
        <time>2011-11-11T19:31:06Z</time>
      </trkpt>
      <trkpt lat="46.82484" lon="-0.97402">
        <ele>122</ele>
        <time>2011-11-11T19:31:10Z</time>
      </trkpt>
      <trkpt lat="46.82424" lon="-0.97193">
        <ele>130</ele>
        <time>2011-11-11T19:31:35Z</time>
      </trkpt>
      <trkpt lat="46.824" lon="-0.96922">
        <ele>127</ele>
        <time>2011-11-11T19:32:05Z</time>
      </trkpt>
      <trkpt lat="46.82405" lon="-0.96785">
        <ele>125</ele>
        <time>2011-11-11T19:32:20Z</time>
      </trkpt>
      <trkpt lat="46.82403" lon="-0.96669">
        <ele>127</ele>
        <time>2011-11-11T19:32:33Z</time>
      </trkpt>
      <trkpt lat="46.82423" lon="-0.96516">
        <ele>126</ele>
        <time>2011-11-11T19:32:50Z</time>
      </trkpt>
      <trkpt lat="46.8243" lon="-0.96434">
        <ele>125</ele>
        <time>2011-11-11T19:32:59Z</time>
      </trkpt>
      <trkpt lat="46.82444" lon="-0.96323">
        <ele>123</ele>
        <time>2011-11-11T19:33:11Z</time>
      </trkpt>
      <trkpt lat="46.82466" lon="-0.96197">
        <ele>123</ele>
        <time>2011-11-11T19:33:25Z</time>
      </trkpt>
      <trkpt lat="46.82458" lon="-0.96073">
        <ele>122</ele>
        <time>2011-11-11T19:33:39Z</time>
      </trkpt>
      <trkpt lat="46.8246" lon="-0.9605">
        <ele>123</ele>
        <time>2011-11-11T19:33:42Z</time>
      </trkpt>
      <trkpt lat="46.82495" lon="-0.95891">
        <ele>124</ele>
        <time>2011-11-11T19:34:00Z</time>
      </trkpt>
      <trkpt lat="46.82502" lon="-0.9584">
        <ele>123</ele>
        <time>2011-11-11T19:34:06Z</time>
      </trkpt>
      <trkpt lat="46.82502" lon="-0.9584">
        <ele>123</ele>
        <time>2011-11-11T19:34:06Z</time>
      </trkpt>
      <trkpt lat="46.82522" lon="-0.95642">
        <ele>124</ele>
        <time>2011-11-11T19:34:28Z</time>
      </trkpt>
      <trkpt lat="46.82528" lon="-0.95617">
        <ele>124</ele>
        <time>2011-11-11T19:34:30Z</time>
      </trkpt>
      <trkpt lat="46.82573" lon="-0.95548">
        <ele>126</ele>
        <time>2011-11-11T19:34:41Z</time>
      </trkpt>
      <trkpt lat="46.82651" lon="-0.95447">
        <ele>128</ele>
        <time>2011-11-11T19:34:58Z</time>
      </trkpt>
      <trkpt lat="46.82678" lon="-0.9538">
        <ele>128</ele>
        <time>2011-11-11T19:35:06Z</time>
      </trkpt>
      <trkpt lat="46.82707" lon="-0.95281">
        <ele>127</ele>
        <time>2011-11-11T19:35:18Z</time>
      </trkpt>
      <trkpt lat="46.82762" lon="-0.95189">
        <ele>129</ele>
        <time>2011-11-11T19:35:31Z</time>
      </trkpt>
      <trkpt lat="46.82777" lon="-0.95155">
        <ele>129</ele>
        <time>2011-11-11T19:35:36Z</time>
      </trkpt>
      <trkpt lat="46.8283" lon="-0.94993">
        <ele>129</ele>
        <time>2011-11-11T19:35:55Z</time>
      </trkpt>
      <trkpt lat="46.82883" lon="-0.94868">
        <ele>131</ele>
        <time>2011-11-11T19:36:11Z</time>
      </trkpt>
      <trkpt lat="46.82902" lon="-0.94805">
        <ele>131</ele>
        <time>2011-11-11T19:36:19Z</time>
      </trkpt>
      <trkpt lat="46.82913" lon="-0.9473">
        <ele>132</ele>
        <time>2011-11-11T19:36:27Z</time>
      </trkpt>
      <trkpt lat="46.82937" lon="-0.94468">
        <ele>132</ele>
        <time>2011-11-11T19:36:56Z</time>
      </trkpt>
      <trkpt lat="46.82934" lon="-0.94424">
        <ele>132</ele>
        <time>2011-11-11T19:37:01Z</time>
      </trkpt>
      <trkpt lat="46.82915" lon="-0.94374">
        <ele>133</ele>
        <time>2011-11-11T19:37:07Z</time>
      </trkpt>
      <trkpt lat="46.8284" lon="-0.94294">
        <ele>131</ele>
        <time>2011-11-11T19:37:22Z</time>
      </trkpt>
      <trkpt lat="46.82809" lon="-0.94249">
        <ele>129</ele>
        <time>2011-11-11T19:37:29Z</time>
      </trkpt>
      <trkpt lat="46.82795" lon="-0.94219">
        <ele>129</ele>
        <time>2011-11-11T19:37:33Z</time>
      </trkpt>
      <trkpt lat="46.82785" lon="-0.94184">
        <ele>128</ele>
        <time>2011-11-11T19:37:37Z</time>
      </trkpt>
      <trkpt lat="46.82781" lon="-0.9414">
        <ele>128</ele>
        <time>2011-11-11T19:37:42Z</time>
      </trkpt>
      <trkpt lat="46.8276" lon="-0.93594">
        <ele>126</ele>
        <time>2011-11-11T19:38:42Z</time>
      </trkpt>
      <trkpt lat="46.82751" lon="-0.93239">
        <ele>133</ele>
        <time>2011-11-11T19:39:21Z</time>
      </trkpt>
      <trkpt lat="46.82751" lon="-0.93239">
        <ele>133</ele>
        <time>2011-11-11T19:39:21Z</time>
      </trkpt>
      <trkpt lat="46.82748" lon="-0.93161">
        <ele>134</ele>
        <time>2011-11-11T19:39:30Z</time>
      </trkpt>
      <trkpt lat="46.82743" lon="-0.92963">
        <ele>137</ele>
        <time>2011-11-11T19:39:51Z</time>
      </trkpt>
      <trkpt lat="46.82751" lon="-0.92927">
        <ele>138</ele>
        <time>2011-11-11T19:39:56Z</time>
      </trkpt>
      <trkpt lat="46.8279" lon="-0.9282">
        <ele>140</ele>
        <time>2011-11-11T19:40:09Z</time>
      </trkpt>
      <trkpt lat="46.82817" lon="-0.92716">
        <ele>144</ele>
        <time>2011-11-11T19:40:34Z</time>
      </trkpt>
      <trkpt lat="46.82833" lon="-0.92698">
        <ele>148</ele>
        <time>2011-11-11T19:40:31Z</time>
      </trkpt>
      <trkpt lat="46.82845" lon="-0.92675">
        <ele>148</ele>
        <time>2011-11-11T19:40:27Z</time>
      </trkpt>
      <trkpt lat="46.82845" lon="-0.92675">
        <ele>148</ele>
        <time>2011-11-11T19:40:27Z</time>
      </trkpt>
      <trkpt lat="46.82833" lon="-0.92698">
        <ele>148</ele>
        <time>2011-11-11T19:40:31Z</time>
      </trkpt>
      <trkpt lat="46.82817" lon="-0.92716">
        <ele>144</ele>
        <time>2011-11-11T19:40:34Z</time>
      </trkpt>
      <trkpt lat="46.8282" lon="-0.92644">
        <ele>148</ele>
        <time>2011-11-11T19:40:42Z</time>
      </trkpt>
      <trkpt lat="46.82826" lon="-0.92604">
        <ele>149</ele>
        <time>2011-11-11T19:40:46Z</time>
      </trkpt>
      <trkpt lat="46.82891" lon="-0.92292">
        <ele>144</ele>
        <time>2011-11-11T19:41:22Z</time>
      </trkpt>
      <trkpt lat="46.82913" lon="-0.92243">
        <ele>142</ele>
        <time>2011-11-11T19:41:28Z</time>
      </trkpt>
      <trkpt lat="46.82945" lon="-0.92193">
        <ele>143</ele>
        <time>2011-11-11T19:41:36Z</time>
      </trkpt>
      <trkpt lat="46.82953" lon="-0.92159">
        <ele>143</ele>
        <time>2011-11-11T19:41:40Z</time>
      </trkpt>
      <trkpt lat="46.82949" lon="-0.92121">
        <ele>146</ele>
        <time>2011-11-11T19:41:44Z</time>
      </trkpt>
      <trkpt lat="46.82908" lon="-0.92066">
        <ele>146</ele>
        <time>2011-11-11T19:41:53Z</time>
      </trkpt>
      <trkpt lat="46.82873" lon="-0.92008">
        <ele>149</ele>
        <time>2011-11-11T19:42:01Z</time>
      </trkpt>
      <trkpt lat="46.82836" lon="-0.91935">
        <ele>155</ele>
        <time>2011-11-11T19:42:11Z</time>
      </trkpt>
      <trkpt lat="46.82826" lon="-0.919">
        <ele>155</ele>
        <time>2011-11-11T19:42:16Z</time>
      </trkpt>
      <trkpt lat="46.82826" lon="-0.91829">
        <ele>162</ele>
        <time>2011-11-11T19:42:23Z</time>
      </trkpt>
      <trkpt lat="46.82836" lon="-0.91713">
        <ele>166</ele>
        <time>2011-11-11T19:42:36Z</time>
      </trkpt>
      <trkpt lat="46.82843" lon="-0.91678">
        <ele>169</ele>
        <time>2011-11-11T19:42:40Z</time>
      </trkpt>
      <trkpt lat="46.82863" lon="-0.91624">
        <ele>171</ele>
        <time>2011-11-11T19:42:47Z</time>
      </trkpt>
      <trkpt lat="46.82896" lon="-0.91561">
        <ele>163</ele>
        <time>2011-11-11T19:42:56Z</time>
      </trkpt>
      <trkpt lat="46.82923" lon="-0.91472">
        <ele>167</ele>
        <time>2011-11-11T19:43:06Z</time>
      </trkpt>
      <trkpt lat="46.8293" lon="-0.91435">
        <ele>171</ele>
        <time>2011-11-11T19:43:10Z</time>
      </trkpt>
      <trkpt lat="46.82935" lon="-0.91301">
        <ele>177</ele>
        <time>2011-11-11T19:43:25Z</time>
      </trkpt>
      <trkpt lat="46.82945" lon="-0.91272">
        <ele>185</ele>
        <time>2011-11-11T19:43:29Z</time>
      </trkpt>
      <trkpt lat="46.82963" lon="-0.91245">
        <ele>190</ele>
        <time>2011-11-11T19:43:33Z</time>
      </trkpt>
      <trkpt lat="46.83047" lon="-0.91244">
        <ele>195</ele>
        <time>2011-11-11T19:43:46Z</time>
      </trkpt>
      <trkpt lat="46.8309" lon="-0.91238">
        <ele>195</ele>
        <time>2011-11-11T19:43:53Z</time>
      </trkpt>
      <trkpt lat="46.83123" lon="-0.91227">
        <ele>195</ele>
        <time>2011-11-11T19:43:59Z</time>
      </trkpt>
      <trkpt lat="46.83151" lon="-0.91207">
        <ele>205</ele>
        <time>2011-11-11T19:44:04Z</time>
      </trkpt>
      <trkpt lat="46.83291" lon="-0.91065">
        <ele>211</ele>
        <time>2011-11-11T19:44:31Z</time>
      </trkpt>
      <trkpt lat="46.83319" lon="-0.9103">
        <ele>210</ele>
        <time>2011-11-11T19:44:37Z</time>
      </trkpt>
      <trkpt lat="46.83352" lon="-0.90969">
        <ele>210</ele>
        <time>2011-11-11T19:44:45Z</time>
      </trkpt>
      <trkpt lat="46.83382" lon="-0.9088">
        <ele>221</ele>
        <time>2011-11-11T19:44:56Z</time>
      </trkpt>
      <trkpt lat="46.83406" lon="-0.90783">
        <ele>228</ele>
        <time>2011-11-11T19:45:07Z</time>
      </trkpt>
      <trkpt lat="46.83424" lon="-0.90738">
        <ele>228</ele>
        <time>2011-11-11T19:45:13Z</time>
      </trkpt>
      <trkpt lat="46.83463" lon="-0.90704">
        <ele>234</ele>
        <time>2011-11-11T19:45:20Z</time>
      </trkpt>
      <trkpt lat="46.83521" lon="-0.90698">
        <ele>234</ele>
        <time>2011-11-11T19:45:30Z</time>
      </trkpt>
      <trkpt lat="46.83539" lon="-0.90681">
        <ele>234</ele>
        <time>2011-11-11T19:45:33Z</time>
      </trkpt>
      <trkpt lat="46.83565" lon="-0.90641">
        <ele>241</ele>
        <time>2011-11-11T19:45:39Z</time>
      </trkpt>
      <trkpt lat="46.83569" lon="-0.9055">
        <ele>244</ele>
        <time>2011-11-11T19:45:49Z</time>
      </trkpt>
      <trkpt lat="46.83573" lon="-0.90528">
        <ele>248</ele>
        <time>2011-11-11T19:45:52Z</time>
      </trkpt>
      <trkpt lat="46.83571" lon="-0.90517">
        <ele>248</ele>
        <time>2011-11-11T19:45:53Z</time>
      </trkpt>
      <trkpt lat="46.83577" lon="-0.90508">
        <ele>248</ele>
        <time>2011-11-11T19:45:54Z</time>
      </trkpt>
      <trkpt lat="46.83582" lon="-0.90508">
        <ele>248</ele>
        <time>2011-11-11T19:45:55Z</time>
      </trkpt>
      <trkpt lat="46.83587" lon="-0.90517">
        <ele>248</ele>
        <time>2011-11-11T19:45:56Z</time>
      </trkpt>
      <trkpt lat="46.83587" lon="-0.90517">
        <ele>248</ele>
        <time>2011-11-11T19:45:56Z</time>
      </trkpt>
      <trkpt lat="46.83587" lon="-0.90525">
        <ele>248</ele>
        <time>2011-11-11T19:45:57Z</time>
      </trkpt>
      <trkpt lat="46.83581" lon="-0.90532">
        <ele>248</ele>
        <time>2011-11-11T19:45:58Z</time>
      </trkpt>
      <trkpt lat="46.83574" lon="-0.9053">
        <ele>248</ele>
        <time>2011-11-11T19:46:00Z</time>
      </trkpt>
      <trkpt lat="46.83571" lon="-0.90519">
        <ele>248</ele>
        <time>2011-11-11T19:46:01Z</time>
      </trkpt>
      <trkpt lat="46.83562" lon="-0.90474">
        <ele>248</ele>
        <time>2011-11-11T19:46:06Z</time>
      </trkpt>
      <trkpt lat="46.83559" lon="-0.90446">
        <ele>250</ele>
        <time>2011-11-11T19:46:09Z</time>
      </trkpt>
      <trkpt lat="46.83561" lon="-0.90434">
        <ele>250</ele>
        <time>2011-11-11T19:46:11Z</time>
      </trkpt>
      <trkpt lat="46.83544" lon="-0.90304">
        <ele>248</ele>
        <time>2011-11-11T19:46:25Z</time>
      </trkpt>
      <trkpt lat="46.83537" lon="-0.90208">
        <ele>243</ele>
        <time>2011-11-11T19:46:36Z</time>
      </trkpt>
      <trkpt lat="46.83523" lon="-0.90121">
        <ele>242</ele>
        <time>2011-11-11T19:46:45Z</time>
      </trkpt>
      <trkpt lat="46.83494" lon="-0.89853">
        <ele>247</ele>
        <time>2011-11-11T19:47:15Z</time>
      </trkpt>
      <trkpt lat="46.8346" lon="-0.89589">
        <ele>250</ele>
        <time>2011-11-11T19:47:45Z</time>
      </trkpt>
      <trkpt lat="46.83456" lon="-0.89533">
        <ele>240</ele>
        <time>2011-11-11T19:47:51Z</time>
      </trkpt>
      <trkpt lat="46.83433" lon="-0.89364">
        <ele>244</ele>
        <time>2011-11-11T19:48:10Z</time>
      </trkpt>
      <trkpt lat="46.83409" lon="-0.89232">
        <ele>248</ele>
        <time>2011-11-11T19:48:25Z</time>
      </trkpt>
      <trkpt lat="46.83389" lon="-0.89148">
        <ele>251</ele>
        <time>2011-11-11T19:48:34Z</time>
      </trkpt>
      <trkpt lat="46.83326" lon="-0.88918">
        <ele>253</ele>
        <time>2011-11-11T19:49:01Z</time>
      </trkpt>
      <trkpt lat="46.83301" lon="-0.88799">
        <ele>254</ele>
        <time>2011-11-11T19:49:15Z</time>
      </trkpt>
      <trkpt lat="46.83273" lon="-0.88696">
        <ele>257</ele>
        <time>2011-11-11T19:49:27Z</time>
      </trkpt>
      <trkpt lat="46.83273" lon="-0.88696">
        <ele>257</ele>
        <time>2011-11-11T19:49:27Z</time>
      </trkpt>
      <trkpt lat="46.83253" lon="-0.88624">
        <ele>260</ele>
        <time>2011-11-11T19:49:36Z</time>
      </trkpt>
      <trkpt lat="46.8328" lon="-0.88621">
        <ele>260</ele>
        <time>2011-11-11T19:49:40Z</time>
      </trkpt>
      <trkpt lat="46.83332" lon="-0.8863">
        <ele>256</ele>
        <time>2011-11-11T19:49:48Z</time>
      </trkpt>
      <trkpt lat="46.83516" lon="-0.88643">
        <ele>249</ele>
        <time>2011-11-11T19:50:18Z</time>
      </trkpt>
      <trkpt lat="46.83591" lon="-0.88637">
        <ele>248</ele>
        <time>2011-11-11T19:50:30Z</time>
      </trkpt>
      <trkpt lat="46.83744" lon="-0.88613">
        <ele>242</ele>
        <time>2011-11-11T19:50:55Z</time>
      </trkpt>
      <trkpt lat="46.83744" lon="-0.88613">
        <ele>242</ele>
        <time>2011-11-11T19:50:55Z</time>
      </trkpt>
      <trkpt lat="46.84391" lon="-0.88513">
        <ele>236</ele>
        <time>2011-11-11T19:52:39Z</time>
      </trkpt>
      <trkpt lat="46.84443" lon="-0.88497">
        <ele>236</ele>
        <time>2011-11-11T19:52:47Z</time>
      </trkpt>
      <trkpt lat="46.84602" lon="-0.88402">
        <ele>236</ele>
        <time>2011-11-11T19:53:15Z</time>
      </trkpt>
      <trkpt lat="46.84602" lon="-0.88402">
        <ele>236</ele>
        <time>2011-11-11T19:53:15Z</time>
      </trkpt>
      <trkpt lat="46.84697" lon="-0.88345">
        <ele>242</ele>
        <time>2011-11-11T19:53:31Z</time>
      </trkpt>
      <trkpt lat="46.84918" lon="-0.8826">
        <ele>216</ele>
        <time>2011-11-11T19:54:08Z</time>
      </trkpt>
      <trkpt lat="46.84957" lon="-0.88258">
        <ele>216</ele>
        <time>2011-11-11T19:54:14Z</time>
      </trkpt>
      <trkpt lat="46.84988" lon="-0.88268">
        <ele>217</ele>
        <time>2011-11-11T19:54:19Z</time>
      </trkpt>
      <trkpt lat="46.85013" lon="-0.88283">
        <ele>217</ele>
        <time>2011-11-11T19:54:23Z</time>
      </trkpt>
      <trkpt lat="46.85051" lon="-0.88324">
        <ele>225</ele>
        <time>2011-11-11T19:54:31Z</time>
      </trkpt>
      <trkpt lat="46.85078" lon="-0.88377">
        <ele>222</ele>
        <time>2011-11-11T19:54:38Z</time>
      </trkpt>
      <trkpt lat="46.85091" lon="-0.88434">
        <ele>222</ele>
        <time>2011-11-11T19:54:45Z</time>
      </trkpt>
      <trkpt lat="46.85123" lon="-0.88655">
        <ele>226</ele>
        <time>2011-11-11T19:55:10Z</time>
      </trkpt>
      <trkpt lat="46.85183" lon="-0.88843">
        <ele>231</ele>
        <time>2011-11-11T19:55:32Z</time>
      </trkpt>
      <trkpt lat="46.85205" lon="-0.88895">
        <ele>228</ele>
        <time>2011-11-11T19:55:39Z</time>
      </trkpt>
      <trkpt lat="46.85229" lon="-0.88938">
        <ele>237</ele>
        <time>2011-11-11T19:55:45Z</time>
      </trkpt>
      <trkpt lat="46.8525" lon="-0.88969">
        <ele>234</ele>
        <time>2011-11-11T19:55:50Z</time>
      </trkpt>
      <trkpt lat="46.8529" lon="-0.89007">
        <ele>234</ele>
        <time>2011-11-11T19:55:57Z</time>
      </trkpt>
      <trkpt lat="46.85322" lon="-0.89028">
        <ele>235</ele>
        <time>2011-11-11T19:56:03Z</time>
      </trkpt>
      <trkpt lat="46.85356" lon="-0.89042">
        <ele>232</ele>
        <time>2011-11-11T19:56:09Z</time>
      </trkpt>
      <trkpt lat="46.85388" lon="-0.89049">
        <ele>233</ele>
        <time>2011-11-11T19:56:14Z</time>
      </trkpt>
      <trkpt lat="46.85427" lon="-0.89049">
        <ele>233</ele>
        <time>2011-11-11T19:56:20Z</time>
      </trkpt>
      <trkpt lat="46.85492" lon="-0.89029">
        <ele>232</ele>
        <time>2011-11-11T19:56:31Z</time>
      </trkpt>
      <trkpt lat="46.85492" lon="-0.89029">
        <ele>232</ele>
        <time>2011-11-11T19:56:31Z</time>
      </trkpt>
      <trkpt lat="46.857" lon="-0.8894">
        <ele>223</ele>
        <time>2011-11-11T19:57:06Z</time>
      </trkpt>
      <trkpt lat="46.85745" lon="-0.88924">
        <ele>220</ele>
        <time>2011-11-11T19:57:13Z</time>
      </trkpt>
      <trkpt lat="46.85766" lon="-0.88922">
        <ele>220</ele>
        <time>2011-11-11T19:57:16Z</time>
      </trkpt>
      <trkpt lat="46.85801" lon="-0.88925">
        <ele>216</ele>
        <time>2011-11-11T19:57:22Z</time>
      </trkpt>
      <trkpt lat="46.85935" lon="-0.8896">
        <ele>211</ele>
        <time>2011-11-11T19:57:44Z</time>
      </trkpt>
      <trkpt lat="46.86161" lon="-0.88962">
        <ele>198</ele>
        <time>2011-11-11T19:58:20Z</time>
      </trkpt>
      <trkpt lat="46.86257" lon="-0.88973">
        <ele>192</ele>
        <time>2011-11-11T19:58:35Z</time>
      </trkpt>
      <trkpt lat="46.8626" lon="-0.88969">
        <ele>192</ele>
        <time>2011-11-11T19:58:36Z</time>
      </trkpt>
      <trkpt lat="46.8626" lon="-0.88969">
        <ele>192</ele>
        <time>2011-11-11T19:58:36Z</time>
      </trkpt>
      <trkpt lat="46.86348" lon="-0.88972">
        <ele>189</ele>
        <time>2011-11-11T19:58:50Z</time>
      </trkpt>
      <trkpt lat="46.86459" lon="-0.88962">
        <ele>183</ele>
        <time>2011-11-11T19:59:08Z</time>
      </trkpt>
      <trkpt lat="46.86487" lon="-0.8897">
        <ele>183</ele>
        <time>2011-11-11T19:59:12Z</time>
      </trkpt>
      <trkpt lat="46.86504" lon="-0.88981">
        <ele>183</ele>
        <time>2011-11-11T19:59:15Z</time>
      </trkpt>
      <trkpt lat="46.86556" lon="-0.89019">
        <ele>184</ele>
        <time>2011-11-11T19:59:25Z</time>
      </trkpt>
      <trkpt lat="46.87046" lon="-0.89485">
        <ele>178</ele>
        <time>2011-11-11T20:00:58Z</time>
      </trkpt>
      <trkpt lat="46.87046" lon="-0.89485">
        <ele>178</ele>
        <time>2011-11-11T20:00:58Z</time>
      </trkpt>
      <trkpt lat="46.87096" lon="-0.89526">
        <ele>178</ele>
        <time>2011-11-11T20:01:07Z</time>
      </trkpt>
      <trkpt lat="46.87141" lon="-0.8955">
        <ele>174</ele>
        <time>2011-11-11T20:01:15Z</time>
      </trkpt>
      <trkpt lat="46.87526" lon="-0.89694">
        <ele>171</ele>
        <time>2011-11-11T20:02:19Z</time>
      </trkpt>
      <trkpt lat="46.87694" lon="-0.89807">
        <ele>170</ele>
        <time>2011-11-11T20:02:48Z</time>
      </trkpt>
      <trkpt lat="46.87784" lon="-0.89874">
        <ele>171</ele>
        <time>2011-11-11T20:03:05Z</time>
      </trkpt>
      <trkpt lat="46.87962" lon="-0.89992">
        <ele>170</ele>
        <time>2011-11-11T20:03:36Z</time>
      </trkpt>
      <trkpt lat="46.87975" lon="-0.89992">
        <ele>170</ele>
        <time>2011-11-11T20:03:38Z</time>
      </trkpt>
      <trkpt lat="46.87985" lon="-0.90017">
        <ele>170</ele>
        <time>2011-11-11T20:03:41Z</time>
      </trkpt>
      <trkpt lat="46.88002" lon="-0.90033">
        <ele>170</ele>
        <time>2011-11-11T20:03:44Z</time>
      </trkpt>
      <trkpt lat="46.88014" lon="-0.90035">
        <ele>170</ele>
        <time>2011-11-11T20:03:46Z</time>
      </trkpt>
      <trkpt lat="46.88367" lon="-0.90003">
        <ele>188</ele>
        <time>2011-11-11T20:04:43Z</time>
      </trkpt>
      <trkpt lat="46.88361" lon="-0.89956">
        <ele>186</ele>
        <time>2011-11-11T20:04:48Z</time>
      </trkpt>
      <trkpt lat="46.88364" lon="-0.89938">
        <ele>186</ele>
        <time>2011-11-11T20:04:50Z</time>
      </trkpt>
      <trkpt lat="46.88435" lon="-0.89669">
        <ele>175</ele>
        <time>2011-11-11T20:05:22Z</time>
      </trkpt>
      <trkpt lat="46.88435" lon="-0.89669">
        <ele>175</ele>
        <time>2011-11-11T20:05:22Z</time>
      </trkpt>
      <trkpt lat="46.88458" lon="-0.89582">
        <ele>174</ele>
        <time>2011-11-11T20:05:32Z</time>
      </trkpt>
      <trkpt lat="46.88572" lon="-0.89341">
        <ele>188</ele>
        <time>2011-11-11T20:06:04Z</time>
      </trkpt>
      <trkpt lat="46.88605" lon="-0.89254">
        <ele>179</ele>
        <time>2011-11-11T20:06:15Z</time>
      </trkpt>
      <trkpt lat="46.88617" lon="-0.89235">
        <ele>179</ele>
        <time>2011-11-11T20:06:18Z</time>
      </trkpt>
      <trkpt lat="46.88633" lon="-0.89223">
        <ele>183</ele>
        <time>2011-11-11T20:06:21Z</time>
      </trkpt>
      <trkpt lat="46.88656" lon="-0.89223">
        <ele>183</ele>
        <time>2011-11-11T20:06:24Z</time>
      </trkpt>
      <trkpt lat="46.88772" lon="-0.89253">
        <ele>186</ele>
        <time>2011-11-11T20:06:43Z</time>
      </trkpt>
      <trkpt lat="46.88809" lon="-0.89254">
        <ele>188</ele>
        <time>2011-11-11T20:06:49Z</time>
      </trkpt>
      <trkpt lat="46.88843" lon="-0.89233">
        <ele>188</ele>
        <time>2011-11-11T20:06:55Z</time>
      </trkpt>
      <trkpt lat="46.88861" lon="-0.89211">
        <ele>188</ele>
        <time>2011-11-11T20:06:59Z</time>
      </trkpt>
      <trkpt lat="46.88882" lon="-0.89172">
        <ele>186</ele>
        <time>2011-11-11T20:07:04Z</time>
      </trkpt>
      <trkpt lat="46.88928" lon="-0.89076">
        <ele>187</ele>
        <time>2011-11-11T20:07:17Z</time>
      </trkpt>
      <trkpt lat="46.8898" lon="-0.88885">
        <ele>185</ele>
        <time>2011-11-11T20:07:40Z</time>
      </trkpt>
      <trkpt lat="46.89047" lon="-0.88717">
        <ele>183</ele>
        <time>2011-11-11T20:08:01Z</time>
      </trkpt>
      <trkpt lat="46.89077" lon="-0.88656">
        <ele>182</ele>
        <time>2011-11-11T20:08:09Z</time>
      </trkpt>
      <trkpt lat="46.89172" lon="-0.88507">
        <ele>183</ele>
        <time>2011-11-11T20:08:31Z</time>
      </trkpt>
      <trkpt lat="46.89199" lon="-0.88447">
        <ele>185</ele>
        <time>2011-11-11T20:08:39Z</time>
      </trkpt>
      <trkpt lat="46.89247" lon="-0.883">
        <ele>186</ele>
        <time>2011-11-11T20:08:57Z</time>
      </trkpt>
      <trkpt lat="46.89317" lon="-0.87977">
        <ele>186</ele>
        <time>2011-11-11T20:09:34Z</time>
      </trkpt>
      <trkpt lat="46.89343" lon="-0.87911">
        <ele>187</ele>
        <time>2011-11-11T20:09:42Z</time>
      </trkpt>
      <trkpt lat="46.89367" lon="-0.87864">
        <ele>190</ele>
        <time>2011-11-11T20:09:49Z</time>
      </trkpt>
      <trkpt lat="46.89421" lon="-0.87779">
        <ele>191</ele>
        <time>2011-11-11T20:10:02Z</time>
      </trkpt>
      <trkpt lat="46.89451" lon="-0.87744">
        <ele>191</ele>
        <time>2011-11-11T20:10:08Z</time>
      </trkpt>
      <trkpt lat="46.89481" lon="-0.87718">
        <ele>191</ele>
        <time>2011-11-11T20:10:13Z</time>
      </trkpt>
      <trkpt lat="46.89539" lon="-0.87684">
        <ele>193</ele>
        <time>2011-11-11T20:10:23Z</time>
      </trkpt>
      <trkpt lat="46.89594" lon="-0.8766">
        <ele>195</ele>
        <time>2011-11-11T20:10:32Z</time>
      </trkpt>
      <trkpt lat="46.89685" lon="-0.87628">
        <ele>193</ele>
        <time>2011-11-11T20:10:47Z</time>
      </trkpt>
      <trkpt lat="46.89713" lon="-0.87623">
        <ele>187</ele>
        <time>2011-11-11T20:10:52Z</time>
      </trkpt>
      <trkpt lat="46.89834" lon="-0.87622">
        <ele>183</ele>
        <time>2011-11-11T20:11:11Z</time>
      </trkpt>
      <trkpt lat="46.89872" lon="-0.87611">
        <ele>183</ele>
        <time>2011-11-11T20:11:18Z</time>
      </trkpt>
      <trkpt lat="46.89897" lon="-0.87598">
        <ele>180</ele>
        <time>2011-11-11T20:11:22Z</time>
      </trkpt>
      <trkpt lat="46.90049" lon="-0.87496">
        <ele>182</ele>
        <time>2011-11-11T20:11:49Z</time>
      </trkpt>
      <trkpt lat="46.9008" lon="-0.8746">
        <ele>182</ele>
        <time>2011-11-11T20:11:55Z</time>
      </trkpt>
      <trkpt lat="46.9013" lon="-0.87369">
        <ele>177</ele>
        <time>2011-11-11T20:12:08Z</time>
      </trkpt>
      <trkpt lat="46.90157" lon="-0.8733">
        <ele>177</ele>
        <time>2011-11-11T20:12:14Z</time>
      </trkpt>
      <trkpt lat="46.90197" lon="-0.87298">
        <ele>177</ele>
        <time>2011-11-11T20:12:21Z</time>
      </trkpt>
      <trkpt lat="46.90231" lon="-0.87288">
        <ele>176</ele>
        <time>2011-11-11T20:12:27Z</time>
      </trkpt>
      <trkpt lat="46.90231" lon="-0.87288">
        <ele>176</ele>
        <time>2011-11-11T20:12:27Z</time>
      </trkpt>
      <trkpt lat="46.90562" lon="-0.87274">
        <ele>164</ele>
        <time>2011-11-11T20:13:20Z</time>
      </trkpt>
      <trkpt lat="46.90933" lon="-0.87217">
        <ele>137</ele>
        <time>2011-11-11T20:14:19Z</time>
      </trkpt>
      <trkpt lat="46.90979" lon="-0.87199">
        <ele>131</ele>
        <time>2011-11-11T20:14:27Z</time>
      </trkpt>
      <trkpt lat="46.91039" lon="-0.87165">
        <ele>131</ele>
        <time>2011-11-11T20:14:37Z</time>
      </trkpt>
      <trkpt lat="46.91061" lon="-0.87144">
        <ele>125</ele>
        <time>2011-11-11T20:14:41Z</time>
      </trkpt>
      <trkpt lat="46.9109" lon="-0.87093">
        <ele>125</ele>
        <time>2011-11-11T20:14:49Z</time>
      </trkpt>
      <trkpt lat="46.91103" lon="-0.87055">
        <ele>125</ele>
        <time>2011-11-11T20:14:53Z</time>
      </trkpt>
      <trkpt lat="46.91116" lon="-0.86977">
        <ele>125</ele>
        <time>2011-11-11T20:15:02Z</time>
      </trkpt>
      <trkpt lat="46.91114" lon="-0.86954">
        <ele>128</ele>
        <time>2011-11-11T20:15:05Z</time>
      </trkpt>
      <trkpt lat="46.91101" lon="-0.86918">
        <ele>128</ele>
        <time>2011-11-11T20:15:09Z</time>
      </trkpt>
      <trkpt lat="46.9105" lon="-0.86798">
        <ele>130</ele>
        <time>2011-11-11T20:15:25Z</time>
      </trkpt>
      <trkpt lat="46.91019" lon="-0.86749">
        <ele>128</ele>
        <time>2011-11-11T20:15:32Z</time>
      </trkpt>
      <trkpt lat="46.91016" lon="-0.86735">
        <ele>128</ele>
        <time>2011-11-11T20:15:34Z</time>
      </trkpt>
      <trkpt lat="46.9102" lon="-0.86716">
        <ele>128</ele>
        <time>2011-11-11T20:15:36Z</time>
      </trkpt>
      <trkpt lat="46.91089" lon="-0.86581">
        <ele>141</ele>
        <time>2011-11-11T20:15:54Z</time>
      </trkpt>
      <trkpt lat="46.91089" lon="-0.86581">
        <ele>141</ele>
        <time>2011-11-11T20:15:54Z</time>
      </trkpt>
      <trkpt lat="46.91103" lon="-0.86557">
        <ele>141</ele>
        <time>2011-11-11T20:15:58Z</time>
      </trkpt>
      <trkpt lat="46.91103" lon="-0.86557">
        <ele>141</ele>
        <time>2011-11-11T20:15:58Z</time>
      </trkpt>
      <trkpt lat="46.91125" lon="-0.86524">
        <ele>144</ele>
        <time>2011-11-11T20:16:03Z</time>
      </trkpt>
      <trkpt lat="46.91137" lon="-0.86535">
        <ele>144</ele>
        <time>2011-11-11T20:16:05Z</time>
      </trkpt>
      <trkpt lat="46.91137" lon="-0.86535">
        <ele>144</ele>
        <time>2011-11-11T20:16:05Z</time>
      </trkpt>
      <trkpt lat="46.91178" lon="-0.86547">
        <ele>136</ele>
        <time>2011-11-11T20:16:12Z</time>
      </trkpt>
      <trkpt lat="46.91201" lon="-0.86545">
        <ele>136</ele>
        <time>2011-11-11T20:16:15Z</time>
      </trkpt>
      <trkpt lat="46.91212" lon="-0.86537">
        <ele>133</ele>
        <time>2011-11-11T20:16:21Z</time>
      </trkpt>
      <trkpt lat="46.91199" lon="-0.86536">
        <ele>144</ele>
        <time>2011-11-11T20:16:19Z</time>
      </trkpt>
      <trkpt lat="46.91199" lon="-0.86536">
        <ele>144</ele>
        <time>2011-11-11T20:16:19Z</time>
      </trkpt>
      <trkpt lat="46.91212" lon="-0.86537">
        <ele>133</ele>
        <time>2011-11-11T20:16:21Z</time>
      </trkpt>
      <trkpt lat="46.91226" lon="-0.86524">
        <ele>133</ele>
        <time>2011-11-11T20:16:24Z</time>
      </trkpt>
      <trkpt lat="46.91232" lon="-0.86512">
        <ele>133</ele>
        <time>2011-11-11T20:16:26Z</time>
      </trkpt>
      <trkpt lat="46.9129" lon="-0.86349">
        <ele>135</ele>
        <time>2011-11-11T20:16:46Z</time>
      </trkpt>
      <trkpt lat="46.91379" lon="-0.8617">
        <ele>150</ele>
        <time>2011-11-11T20:17:10Z</time>
      </trkpt>
      <trkpt lat="46.9139" lon="-0.86133">
        <ele>150</ele>
        <time>2011-11-11T20:17:14Z</time>
      </trkpt>
      <trkpt lat="46.91392" lon="-0.8611">
        <ele>151</ele>
        <time>2011-11-11T20:17:17Z</time>
      </trkpt>
      <trkpt lat="46.91392" lon="-0.86075">
        <ele>151</ele>
        <time>2011-11-11T20:17:21Z</time>
      </trkpt>
      <trkpt lat="46.91386" lon="-0.8602">
        <ele>154</ele>
        <time>2011-11-11T20:17:27Z</time>
      </trkpt>
      <trkpt lat="46.91386" lon="-0.8602">
        <ele>154</ele>
        <time>2011-11-11T20:17:27Z</time>
      </trkpt>
      <trkpt lat="46.91385" lon="-0.85984">
        <ele>154</ele>
        <time>2011-11-11T20:17:31Z</time>
      </trkpt>
      <trkpt lat="46.91407" lon="-0.85748">
        <ele>146</ele>
        <time>2011-11-11T20:17:57Z</time>
      </trkpt>
      <trkpt lat="46.91403" lon="-0.85623">
        <ele>155</ele>
        <time>2011-11-11T20:18:11Z</time>
      </trkpt>
      <trkpt lat="46.91407" lon="-0.85569">
        <ele>155</ele>
        <time>2011-11-11T20:18:17Z</time>
      </trkpt>
      <trkpt lat="46.91453" lon="-0.85361">
        <ele>154</ele>
        <time>2011-11-11T20:18:40Z</time>
      </trkpt>
      <trkpt lat="46.91465" lon="-0.8533">
        <ele>158</ele>
        <time>2011-11-11T20:18:44Z</time>
      </trkpt>
      <trkpt lat="46.91481" lon="-0.85306">
        <ele>158</ele>
        <time>2011-11-11T20:18:48Z</time>
      </trkpt>
      <trkpt lat="46.91508" lon="-0.85278">
        <ele>165</ele>
        <time>2011-11-11T20:18:53Z</time>
      </trkpt>
      <trkpt lat="46.9165" lon="-0.85147">
        <ele>168</ele>
        <time>2011-11-11T20:19:20Z</time>
      </trkpt>
      <trkpt lat="46.9168" lon="-0.85128">
        <ele>168</ele>
        <time>2011-11-11T20:19:25Z</time>
      </trkpt>
      <trkpt lat="46.91702" lon="-0.85117">
        <ele>175</ele>
        <time>2011-11-11T20:19:29Z</time>
      </trkpt>
      <trkpt lat="46.91732" lon="-0.8511">
        <ele>177</ele>
        <time>2011-11-11T20:19:34Z</time>
      </trkpt>
      <trkpt lat="46.91833" lon="-0.85118">
        <ele>177</ele>
        <time>2011-11-11T20:19:50Z</time>
      </trkpt>
      <trkpt lat="46.91885" lon="-0.85103">
        <ele>178</ele>
        <time>2011-11-11T20:19:59Z</time>
      </trkpt>
      <trkpt lat="46.91907" lon="-0.85091">
        <ele>178</ele>
        <time>2011-11-11T20:20:02Z</time>
      </trkpt>
      <trkpt lat="46.91929" lon="-0.85066">
        <ele>178</ele>
        <time>2011-11-11T20:20:07Z</time>
      </trkpt>
      <trkpt lat="46.91945" lon="-0.84967">
        <ele>179</ele>
        <time>2011-11-11T20:20:18Z</time>
      </trkpt>
      <trkpt lat="46.91945" lon="-0.84967">
        <ele>179</ele>
        <time>2011-11-11T20:20:18Z</time>
      </trkpt>
      <trkpt lat="46.91951" lon="-0.84922">
        <ele>182</ele>
        <time>2011-11-11T20:20:23Z</time>
      </trkpt>
      <trkpt lat="46.91959" lon="-0.84927">
        <ele>181</ele>
        <time>2011-11-11T20:20:24Z</time>
      </trkpt>
      <trkpt lat="46.92007" lon="-0.84989">
        <ele>183</ele>
        <time>2011-11-11T20:20:35Z</time>
      </trkpt>
      <trkpt lat="46.92058" lon="-0.85011">
        <ele>184</ele>
        <time>2011-11-11T20:20:43Z</time>
      </trkpt>
      <trkpt lat="46.92069" lon="-0.8502">
        <ele>184</ele>
        <time>2011-11-11T20:20:45Z</time>
      </trkpt>
      <trkpt lat="46.92084" lon="-0.85039">
        <ele>184</ele>
        <time>2011-11-11T20:20:48Z</time>
      </trkpt>
      <trkpt lat="46.92098" lon="-0.85075">
        <ele>188</ele>
        <time>2011-11-11T20:20:53Z</time>
      </trkpt>
      <trkpt lat="46.92121" lon="-0.85118">
        <ele>188</ele>
        <time>2011-11-11T20:20:59Z</time>
      </trkpt>
      <trkpt lat="46.92152" lon="-0.85146">
        <ele>187</ele>
        <time>2011-11-11T20:21:05Z</time>
      </trkpt>
      <trkpt lat="46.92176" lon="-0.8516">
        <ele>187</ele>
        <time>2011-11-11T20:21:09Z</time>
      </trkpt>
      <trkpt lat="46.92235" lon="-0.85182">
        <ele>185</ele>
        <time>2011-11-11T20:21:19Z</time>
      </trkpt>
      <trkpt lat="46.92262" lon="-0.85188">
        <ele>185</ele>
        <time>2011-11-11T20:21:23Z</time>
      </trkpt>
      <trkpt lat="46.92274" lon="-0.85184">
        <ele>185</ele>
        <time>2011-11-11T20:21:25Z</time>
      </trkpt>
      <trkpt lat="46.92316" lon="-0.85208">
        <ele>185</ele>
        <time>2011-11-11T20:21:32Z</time>
      </trkpt>
      <trkpt lat="46.92413" lon="-0.85247">
        <ele>179</ele>
        <time>2011-11-11T20:21:48Z</time>
      </trkpt>
      <trkpt lat="46.9247" lon="-0.85281">
        <ele>177</ele>
        <time>2011-11-11T20:21:58Z</time>
      </trkpt>
      <trkpt lat="46.92495" lon="-0.85304">
        <ele>178</ele>
        <time>2011-11-11T20:22:03Z</time>
      </trkpt>
      <trkpt lat="46.92527" lon="-0.8538">
        <ele>178</ele>
        <time>2011-11-11T20:22:13Z</time>
      </trkpt>
      <trkpt lat="46.92571" lon="-0.85428">
        <ele>173</ele>
        <time>2011-11-11T20:22:21Z</time>
      </trkpt>
      <trkpt lat="46.92617" lon="-0.85448">
        <ele>173</ele>
        <time>2011-11-11T20:22:29Z</time>
      </trkpt>
      <trkpt lat="46.92665" lon="-0.85491">
        <ele>167</ele>
        <time>2011-11-11T20:22:38Z</time>
      </trkpt>
      <trkpt lat="46.92713" lon="-0.85523">
        <ele>163</ele>
        <time>2011-11-11T20:22:47Z</time>
      </trkpt>
      <trkpt lat="46.92713" lon="-0.85523">
        <ele>163</ele>
        <time>2011-11-11T20:22:47Z</time>
      </trkpt>
      <trkpt lat="46.92811" lon="-0.85594">
        <ele>166</ele>
        <time>2011-11-11T20:23:04Z</time>
      </trkpt>
      <trkpt lat="46.92907" lon="-0.85648">
        <ele>168</ele>
        <time>2011-11-11T20:23:21Z</time>
      </trkpt>
      <trkpt lat="46.93026" lon="-0.85747">
        <ele>163</ele>
        <time>2011-11-11T20:23:42Z</time>
      </trkpt>
      <trkpt lat="46.93067" lon="-0.85775">
        <ele>163</ele>
        <time>2011-11-11T20:23:50Z</time>
      </trkpt>
      <trkpt lat="46.93086" lon="-0.85779">
        <ele>163</ele>
        <time>2011-11-11T20:23:53Z</time>
      </trkpt>
      <trkpt lat="46.93174" lon="-0.85753">
        <ele>156</ele>
        <time>2011-11-11T20:24:07Z</time>
      </trkpt>
      <trkpt lat="46.93207" lon="-0.8575">
        <ele>156</ele>
        <time>2011-11-11T20:24:12Z</time>
      </trkpt>
      <trkpt lat="46.93308" lon="-0.85786">
        <ele>160</ele>
        <time>2011-11-11T20:24:29Z</time>
      </trkpt>
      <trkpt lat="46.93372" lon="-0.85792">
        <ele>155</ele>
        <time>2011-11-11T20:24:39Z</time>
      </trkpt>
      <trkpt lat="46.93458" lon="-0.85817">
        <ele>161</ele>
        <time>2011-11-11T20:24:53Z</time>
      </trkpt>
      <trkpt lat="46.93486" lon="-0.8583">
        <ele>165</ele>
        <time>2011-11-11T20:24:58Z</time>
      </trkpt>
      <trkpt lat="46.93607" lon="-0.85949">
        <ele>169</ele>
        <time>2011-11-11T20:25:21Z</time>
      </trkpt>
      <trkpt lat="46.93687" lon="-0.86003">
        <ele>166</ele>
        <time>2011-11-11T20:25:36Z</time>
      </trkpt>
      <trkpt lat="46.93813" lon="-0.86133">
        <ele>155</ele>
        <time>2011-11-11T20:26:00Z</time>
      </trkpt>
      <trkpt lat="46.93893" lon="-0.86209">
        <ele>154</ele>
        <time>2011-11-11T20:26:15Z</time>
      </trkpt>
      <trkpt lat="46.93921" lon="-0.86253">
        <ele>154</ele>
        <time>2011-11-11T20:26:22Z</time>
      </trkpt>
      <trkpt lat="46.93943" lon="-0.86301">
        <ele>153</ele>
        <time>2011-11-11T20:26:28Z</time>
      </trkpt>
      <trkpt lat="46.93969" lon="-0.86399">
        <ele>152</ele>
        <time>2011-11-11T20:26:40Z</time>
      </trkpt>
      <trkpt lat="46.93988" lon="-0.86435">
        <ele>152</ele>
        <time>2011-11-11T20:26:45Z</time>
      </trkpt>
      <trkpt lat="46.94019" lon="-0.86466">
        <ele>152</ele>
        <time>2011-11-11T20:26:51Z</time>
      </trkpt>
      <trkpt lat="46.94135" lon="-0.86548">
        <ele>163</ele>
        <time>2011-11-11T20:27:11Z</time>
      </trkpt>
      <trkpt lat="46.9417" lon="-0.86582">
        <ele>163</ele>
        <time>2011-11-11T20:27:18Z</time>
      </trkpt>
      <trkpt lat="46.94283" lon="-0.86734">
        <ele>166</ele>
        <time>2011-11-11T20:27:43Z</time>
      </trkpt>
      <trkpt lat="46.94362" lon="-0.86811">
        <ele>167</ele>
        <time>2011-11-11T20:27:58Z</time>
      </trkpt>
      <trkpt lat="46.94362" lon="-0.86811">
        <ele>167</ele>
        <time>2011-11-11T20:27:58Z</time>
      </trkpt>
      <trkpt lat="46.94394" lon="-0.86856">
        <ele>168</ele>
        <time>2011-11-11T20:28:05Z</time>
      </trkpt>
      <trkpt lat="46.94423" lon="-0.86906">
        <ele>168</ele>
        <time>2011-11-11T20:28:12Z</time>
      </trkpt>
      <trkpt lat="46.94522" lon="-0.87047">
        <ele>171</ele>
        <time>2011-11-11T20:28:34Z</time>
      </trkpt>
      <trkpt lat="46.94597" lon="-0.87186">
        <ele>171</ele>
        <time>2011-11-11T20:28:54Z</time>
      </trkpt>
      <trkpt lat="46.94694" lon="-0.87314">
        <ele>163</ele>
        <time>2011-11-11T20:29:15Z</time>
      </trkpt>
      <trkpt lat="46.94702" lon="-0.87319">
        <ele>163</ele>
        <time>2011-11-11T20:29:16Z</time>
      </trkpt>
      <trkpt lat="46.94726" lon="-0.8732">
        <ele>161</ele>
        <time>2011-11-11T20:29:20Z</time>
      </trkpt>
      <trkpt lat="46.94756" lon="-0.87299">
        <ele>161</ele>
        <time>2011-11-11T20:29:25Z</time>
      </trkpt>
      <trkpt lat="46.94884" lon="-0.87189">
        <ele>154</ele>
        <time>2011-11-11T20:29:49Z</time>
      </trkpt>
      <trkpt lat="46.94929" lon="-0.87134">
        <ele>154</ele>
        <time>2011-11-11T20:29:58Z</time>
      </trkpt>
      <trkpt lat="46.94994" lon="-0.87091">
        <ele>148</ele>
        <time>2011-11-11T20:30:10Z</time>
      </trkpt>
      <trkpt lat="46.95083" lon="-0.87042">
        <ele>143</ele>
        <time>2011-11-11T20:30:25Z</time>
      </trkpt>
      <trkpt lat="46.95115" lon="-0.8703">
        <ele>145</ele>
        <time>2011-11-11T20:30:30Z</time>
      </trkpt>
      <trkpt lat="46.95266" lon="-0.87013">
        <ele>153</ele>
        <time>2011-11-11T20:30:54Z</time>
      </trkpt>
      <trkpt lat="46.95301" lon="-0.87233">
        <ele>163</ele>
        <time>2011-11-11T20:31:19Z</time>
      </trkpt>
      <trkpt lat="46.95315" lon="-0.8728">
        <ele>163</ele>
        <time>2011-11-11T20:31:25Z</time>
      </trkpt>
      <trkpt lat="46.95474" lon="-0.87507">
        <ele>156</ele>
        <time>2011-11-11T20:32:00Z</time>
      </trkpt>
      <trkpt lat="46.95488" lon="-0.87549">
        <ele>147</ele>
        <time>2011-11-11T20:32:05Z</time>
      </trkpt>
      <trkpt lat="46.95491" lon="-0.87578">
        <ele>147</ele>
        <time>2011-11-11T20:32:09Z</time>
      </trkpt>
      <trkpt lat="46.9551" lon="-0.87646">
        <ele>136</ele>
        <time>2011-11-11T20:32:17Z</time>
      </trkpt>
      <trkpt lat="46.95531" lon="-0.87696">
        <ele>136</ele>
        <time>2011-11-11T20:32:23Z</time>
      </trkpt>
      <trkpt lat="46.95553" lon="-0.87728">
        <ele>138</ele>
        <time>2011-11-11T20:32:28Z</time>
      </trkpt>
      <trkpt lat="46.95565" lon="-0.87754">
        <ele>138</ele>
        <time>2011-11-11T20:32:31Z</time>
      </trkpt>
      <trkpt lat="46.95586" lon="-0.87855">
        <ele>133</ele>
        <time>2011-11-11T20:32:43Z</time>
      </trkpt>
      <trkpt lat="46.95622" lon="-0.87911">
        <ele>129</ele>
        <time>2011-11-11T20:32:51Z</time>
      </trkpt>
      <trkpt lat="46.95699" lon="-0.87996">
        <ele>130</ele>
        <time>2011-11-11T20:33:07Z</time>
      </trkpt>
      <trkpt lat="46.9577" lon="-0.88136">
        <ele>124</ele>
        <time>2011-11-11T20:33:26Z</time>
      </trkpt>
      <trkpt lat="46.95775" lon="-0.88162">
        <ele>124</ele>
        <time>2011-11-11T20:33:29Z</time>
      </trkpt>
      <trkpt lat="46.95792" lon="-0.88482">
        <ele>111</ele>
        <time>2011-11-11T20:34:04Z</time>
      </trkpt>
      <trkpt lat="46.95802" lon="-0.88556">
        <ele>112</ele>
        <time>2011-11-11T20:34:12Z</time>
      </trkpt>
      <trkpt lat="46.95808" lon="-0.88575">
        <ele>112</ele>
        <time>2011-11-11T20:34:15Z</time>
      </trkpt>
      <trkpt lat="46.95836" lon="-0.88632">
        <ele>112</ele>
        <time>2011-11-11T20:34:22Z</time>
      </trkpt>
      <trkpt lat="46.95884" lon="-0.88712">
        <ele>113</ele>
        <time>2011-11-11T20:34:34Z</time>
      </trkpt>
      <trkpt lat="46.95892" lon="-0.88717">
        <ele>113</ele>
        <time>2011-11-11T20:34:35Z</time>
      </trkpt>
      <trkpt lat="46.95945" lon="-0.88719">
        <ele>113</ele>
        <time>2011-11-11T20:34:47Z</time>
      </trkpt>
      <trkpt lat="46.95946" lon="-0.88706">
        <ele>114</ele>
        <time>2011-11-11T20:34:45Z</time>
      </trkpt>
      <trkpt lat="46.95946" lon="-0.88706">
        <ele>114</ele>
        <time>2011-11-11T20:34:45Z</time>
      </trkpt>
      <trkpt lat="46.95945" lon="-0.88719">
        <ele>113</ele>
        <time>2011-11-11T20:34:47Z</time>
      </trkpt>
      <trkpt lat="46.96012" lon="-0.8872">
        <ele>112</ele>
        <time>2011-11-11T20:34:57Z</time>
      </trkpt>
      <trkpt lat="46.96035" lon="-0.88712">
        <ele>112</ele>
        <time>2011-11-11T20:35:01Z</time>
      </trkpt>
      <trkpt lat="46.96042" lon="-0.88704">
        <ele>121</ele>
        <time>2011-11-11T20:35:02Z</time>
      </trkpt>
      <trkpt lat="46.9605" lon="-0.88705">
        <ele>121</ele>
        <time>2011-11-11T20:35:04Z</time>
      </trkpt>
      <trkpt lat="46.96056" lon="-0.8872">
        <ele>118</ele>
        <time>2011-11-11T20:35:06Z</time>
      </trkpt>
      <trkpt lat="46.96054" lon="-0.8873">
        <ele>118</ele>
        <time>2011-11-11T20:35:07Z</time>
      </trkpt>
      <trkpt lat="46.96049" lon="-0.88734">
        <ele>118</ele>
        <time>2011-11-11T20:35:08Z</time>
      </trkpt>
      <trkpt lat="46.96036" lon="-0.88793">
        <ele>112</ele>
        <time>2011-11-11T20:35:15Z</time>
      </trkpt>
      <trkpt lat="46.96033" lon="-0.88855">
        <ele>112</ele>
        <time>2011-11-11T20:35:21Z</time>
      </trkpt>
      <trkpt lat="46.96017" lon="-0.88946">
        <ele>112</ele>
        <time>2011-11-11T20:35:32Z</time>
      </trkpt>
      <trkpt lat="46.95993" lon="-0.89007">
        <ele>111</ele>
        <time>2011-11-11T20:35:39Z</time>
      </trkpt>
      <trkpt lat="46.95933" lon="-0.89108">
        <ele>115</ele>
        <time>2011-11-11T20:35:54Z</time>
      </trkpt>
      <trkpt lat="46.95915" lon="-0.89154">
        <ele>119</ele>
        <time>2011-11-11T20:36:00Z</time>
      </trkpt>
      <trkpt lat="46.95907" lon="-0.89189">
        <ele>119</ele>
        <time>2011-11-11T20:36:04Z</time>
      </trkpt>
      <trkpt lat="46.95876" lon="-0.89407">
        <ele>123</ele>
        <time>2011-11-11T20:36:28Z</time>
      </trkpt>
      <trkpt lat="46.95873" lon="-0.89448">
        <ele>124</ele>
        <time>2011-11-11T20:36:33Z</time>
      </trkpt>
      <trkpt lat="46.9588" lon="-0.89523">
        <ele>126</ele>
        <time>2011-11-11T20:36:41Z</time>
      </trkpt>
      <trkpt lat="46.95874" lon="-0.89562">
        <ele>133</ele>
        <time>2011-11-11T20:36:45Z</time>
      </trkpt>
      <trkpt lat="46.95826" lon="-0.89583">
        <ele>133</ele>
        <time>2011-11-11T20:36:53Z</time>
      </trkpt>
      <trkpt lat="46.95808" lon="-0.89596">
        <ele>133</ele>
        <time>2011-11-11T20:36:56Z</time>
      </trkpt>
      <trkpt lat="46.95717" lon="-0.89711">
        <ele>136</ele>
        <time>2011-11-11T20:37:16Z</time>
      </trkpt>
      <trkpt lat="46.95656" lon="-0.89777">
        <ele>135</ele>
        <time>2011-11-11T20:37:28Z</time>
      </trkpt>
      <trkpt lat="46.95608" lon="-0.89807">
        <ele>139</ele>
        <time>2011-11-11T20:37:36Z</time>
      </trkpt>
      <trkpt lat="46.95562" lon="-0.89816">
        <ele>139</ele>
        <time>2011-11-11T20:37:44Z</time>
      </trkpt>
      <trkpt lat="46.95523" lon="-0.89811">
        <ele>146</ele>
        <time>2011-11-11T20:37:50Z</time>
      </trkpt>
      <trkpt lat="46.95497" lon="-0.898">
        <ele>146</ele>
        <time>2011-11-11T20:37:54Z</time>
      </trkpt>
      <trkpt lat="46.95185" lon="-0.89631">
        <ele>150</ele>
        <time>2011-11-11T20:38:47Z</time>
      </trkpt>
      <trkpt lat="46.95115" lon="-0.89583">
        <ele>149</ele>
        <time>2011-11-11T20:39:00Z</time>
      </trkpt>
      <trkpt lat="46.95077" lon="-0.89571">
        <ele>149</ele>
        <time>2011-11-11T20:39:06Z</time>
      </trkpt>
      <trkpt lat="46.95044" lon="-0.89568">
        <ele>149</ele>
        <time>2011-11-11T20:39:11Z</time>
      </trkpt>
      <trkpt lat="46.94988" lon="-0.8958">
        <ele>153</ele>
        <time>2011-11-11T20:39:20Z</time>
      </trkpt>
      <trkpt lat="46.9495" lon="-0.89602">
        <ele>156</ele>
        <time>2011-11-11T20:39:27Z</time>
      </trkpt>
      <trkpt lat="46.94873" lon="-0.89675">
        <ele>159</ele>
        <time>2011-11-11T20:39:42Z</time>
      </trkpt>
      <trkpt lat="46.94854" lon="-0.89707">
        <ele>159</ele>
        <time>2011-11-11T20:39:46Z</time>
      </trkpt>
      <trkpt lat="46.94851" lon="-0.89723">
        <ele>159</ele>
        <time>2011-11-11T20:39:48Z</time>
      </trkpt>
      <trkpt lat="46.94844" lon="-0.89728">
        <ele>159</ele>
        <time>2011-11-11T20:39:49Z</time>
      </trkpt>
      <trkpt lat="46.9481" lon="-0.89708">
        <ele>159</ele>
        <time>2011-11-11T20:39:55Z</time>
      </trkpt>
      <trkpt lat="46.94733" lon="-0.89687">
        <ele>168</ele>
        <time>2011-11-11T20:40:08Z</time>
      </trkpt>
      <trkpt lat="46.94698" lon="-0.89666">
        <ele>171</ele>
        <time>2011-11-11T20:40:14Z</time>
      </trkpt>
      <trkpt lat="46.94651" lon="-0.89646">
        <ele>171</ele>
        <time>2011-11-11T20:40:22Z</time>
      </trkpt>
      <trkpt lat="46.94588" lon="-0.89635">
        <ele>171</ele>
        <time>2011-11-11T20:40:32Z</time>
      </trkpt>
      <trkpt lat="46.94547" lon="-0.89638">
        <ele>171</ele>
        <time>2011-11-11T20:40:38Z</time>
      </trkpt>
      <trkpt lat="46.94518" lon="-0.89646">
        <ele>172</ele>
        <time>2011-11-11T20:40:43Z</time>
      </trkpt>
      <trkpt lat="46.94246" lon="-0.89733">
        <ele>176</ele>
        <time>2011-11-11T20:41:28Z</time>
      </trkpt>
      <trkpt lat="46.93987" lon="-0.89766">
        <ele>173</ele>
        <time>2011-11-11T20:42:09Z</time>
      </trkpt>
      <trkpt lat="46.93944" lon="-0.8977">
        <ele>173</ele>
        <time>2011-11-11T20:42:16Z</time>
      </trkpt>
      <trkpt lat="46.93863" lon="-0.89768">
        <ele>175</ele>
        <time>2011-11-11T20:42:29Z</time>
      </trkpt>
      <trkpt lat="46.93655" lon="-0.8975">
        <ele>177</ele>
        <time>2011-11-11T20:43:03Z</time>
      </trkpt>
      <trkpt lat="46.93532" lon="-0.89752">
        <ele>181</ele>
        <time>2011-11-11T20:43:22Z</time>
      </trkpt>
      <trkpt lat="46.935" lon="-0.89759">
        <ele>181</ele>
        <time>2011-11-11T20:43:27Z</time>
      </trkpt>
      <trkpt lat="46.93493" lon="-0.8977">
        <ele>181</ele>
        <time>2011-11-11T20:43:29Z</time>
      </trkpt>
      <trkpt lat="46.93481" lon="-0.89766">
        <ele>181</ele>
        <time>2011-11-11T20:43:31Z</time>
      </trkpt>
      <trkpt lat="46.93423" lon="-0.89799">
        <ele>187</ele>
        <time>2011-11-11T20:43:41Z</time>
      </trkpt>
      <trkpt lat="46.93394" lon="-0.89825">
        <ele>187</ele>
        <time>2011-11-11T20:43:46Z</time>
      </trkpt>
      <trkpt lat="46.9332" lon="-0.89916">
        <ele>192</ele>
        <time>2011-11-11T20:44:02Z</time>
      </trkpt>
      <trkpt lat="46.93267" lon="-0.8997">
        <ele>194</ele>
        <time>2011-11-11T20:44:12Z</time>
      </trkpt>
      <trkpt lat="46.93173" lon="-0.90052">
        <ele>193</ele>
        <time>2011-11-11T20:44:30Z</time>
      </trkpt>
      <trkpt lat="46.93173" lon="-0.90052">
        <ele>193</ele>
        <time>2011-11-11T20:44:30Z</time>
      </trkpt>
      <trkpt lat="46.93137" lon="-0.90076">
        <ele>193</ele>
        <time>2011-11-11T20:44:36Z</time>
      </trkpt>
      <trkpt lat="46.93122" lon="-0.90078">
        <ele>195</ele>
        <time>2011-11-11T20:44:39Z</time>
      </trkpt>
      <trkpt lat="46.92891" lon="-0.90006">
        <ele>195</ele>
        <time>2011-11-11T20:45:16Z</time>
      </trkpt>
      <trkpt lat="46.92864" lon="-0.90002">
        <ele>190</ele>
        <time>2011-11-11T20:45:21Z</time>
      </trkpt>
      <trkpt lat="46.92876" lon="-0.90086">
        <ele>197</ele>
        <time>2011-11-11T20:45:30Z</time>
      </trkpt>
      <trkpt lat="46.92875" lon="-0.90119">
        <ele>195</ele>
        <time>2011-11-11T20:45:34Z</time>
      </trkpt>
      <trkpt lat="46.9285" lon="-0.90181">
        <ele>196</ele>
        <time>2011-11-11T20:45:42Z</time>
      </trkpt>
      <trkpt lat="46.92836" lon="-0.90254">
        <ele>195</ele>
        <time>2011-11-11T20:45:50Z</time>
      </trkpt>
      <trkpt lat="46.92805" lon="-0.9034">
        <ele>194</ele>
        <time>2011-11-11T20:46:00Z</time>
      </trkpt>
      <trkpt lat="46.92826" lon="-0.90411">
        <ele>194</ele>
        <time>2011-11-11T20:46:09Z</time>
      </trkpt>
      <trkpt lat="46.92813" lon="-0.90534">
        <ele>198</ele>
        <time>2011-11-11T20:46:23Z</time>
      </trkpt>
      <trkpt lat="46.92771" lon="-0.90669">
        <ele>194</ele>
        <time>2011-11-11T20:46:39Z</time>
      </trkpt>
      <trkpt lat="46.92745" lon="-0.90824">
        <ele>192</ele>
        <time>2011-11-11T20:46:56Z</time>
      </trkpt>
      <trkpt lat="46.92709" lon="-0.90983">
        <ele>195</ele>
        <time>2011-11-11T20:47:19Z</time>
      </trkpt>
      <trkpt lat="46.92722" lon="-0.90978">
        <ele>195</ele>
        <time>2011-11-11T20:47:17Z</time>
      </trkpt>
      <trkpt lat="46.92722" lon="-0.90978">
        <ele>195</ele>
        <time>2011-11-11T20:47:17Z</time>
      </trkpt>
      <trkpt lat="46.92709" lon="-0.90983">
        <ele>195</ele>
        <time>2011-11-11T20:47:19Z</time>
      </trkpt>
      <trkpt lat="46.92681" lon="-0.91104">
        <ele>199</ele>
        <time>2011-11-11T20:47:33Z</time>
      </trkpt>
      <trkpt lat="46.92678" lon="-0.91132">
        <ele>200</ele>
        <time>2011-11-11T20:47:36Z</time>
      </trkpt>
      <trkpt lat="46.92661" lon="-0.91137">
        <ele>200</ele>
        <time>2011-11-11T20:47:39Z</time>
      </trkpt>
      <trkpt lat="46.92644" lon="-0.9121">
        <ele>198</ele>
        <time>2011-11-11T20:47:47Z</time>
      </trkpt>
      <trkpt lat="46.92627" lon="-0.91327">
        <ele>196</ele>
        <time>2011-11-11T20:48:00Z</time>
      </trkpt>
      <trkpt lat="46.92622" lon="-0.91407">
        <ele>194</ele>
        <time>2011-11-11T20:48:09Z</time>
      </trkpt>
      <trkpt lat="46.92624" lon="-0.91449">
        <ele>194</ele>
        <time>2011-11-11T20:48:14Z</time>
      </trkpt>
      <trkpt lat="46.92627" lon="-0.91488">
        <ele>190</ele>
        <time>2011-11-11T20:48:18Z</time>
      </trkpt>
      <trkpt lat="46.9264" lon="-0.91564">
        <ele>187</ele>
        <time>2011-11-11T20:48:26Z</time>
      </trkpt>
      <trkpt lat="46.927" lon="-0.91763">
        <ele>182</ele>
        <time>2011-11-11T20:48:50Z</time>
      </trkpt>
      <trkpt lat="46.92732" lon="-0.91907">
        <ele>178</ele>
        <time>2011-11-11T20:49:07Z</time>
      </trkpt>
      <trkpt lat="46.92735" lon="-0.91972">
        <ele>177</ele>
        <time>2011-11-11T20:49:14Z</time>
      </trkpt>
      <trkpt lat="46.92726" lon="-0.92054">
        <ele>178</ele>
        <time>2011-11-11T20:49:23Z</time>
      </trkpt>
      <trkpt lat="46.92726" lon="-0.92119">
        <ele>178</ele>
        <time>2011-11-11T20:49:30Z</time>
      </trkpt>
      <trkpt lat="46.92734" lon="-0.92188">
        <ele>178</ele>
        <time>2011-11-11T20:49:38Z</time>
      </trkpt>
      <trkpt lat="46.9276" lon="-0.92329">
        <ele>177</ele>
        <time>2011-11-11T20:49:54Z</time>
      </trkpt>
      <trkpt lat="46.92759" lon="-0.92483">
        <ele>180</ele>
        <time>2011-11-11T20:50:11Z</time>
      </trkpt>
      <trkpt lat="46.92763" lon="-0.92534">
        <ele>180</ele>
        <time>2011-11-11T20:50:16Z</time>
      </trkpt>
      <trkpt lat="46.9277" lon="-0.92571">
        <ele>182</ele>
        <time>2011-11-11T20:50:20Z</time>
      </trkpt>
      <trkpt lat="46.9277" lon="-0.92571">
        <ele>182</ele>
        <time>2011-11-11T20:50:20Z</time>
      </trkpt>
      <trkpt lat="46.9278" lon="-0.9264">
        <ele>185</ele>
        <time>2011-11-11T20:50:28Z</time>
      </trkpt>
      <trkpt lat="46.92794" lon="-0.92831">
        <ele>187</ele>
        <time>2011-11-11T20:50:49Z</time>
      </trkpt>
      <trkpt lat="46.92795" lon="-0.92981">
        <ele>190</ele>
        <time>2011-11-11T20:51:06Z</time>
      </trkpt>
      <trkpt lat="46.92798" lon="-0.92999">
        <ele>190</ele>
        <time>2011-11-11T20:51:08Z</time>
      </trkpt>
      <trkpt lat="46.92815" lon="-0.93046">
        <ele>188</ele>
        <time>2011-11-11T20:51:13Z</time>
      </trkpt>
      <trkpt lat="46.92871" lon="-0.93155">
        <ele>188</ele>
        <time>2011-11-11T20:51:28Z</time>
      </trkpt>
      <trkpt lat="46.92897" lon="-0.93222">
        <ele>186</ele>
        <time>2011-11-11T20:51:37Z</time>
      </trkpt>
      <trkpt lat="46.92927" lon="-0.93279">
        <ele>186</ele>
        <time>2011-11-11T20:51:45Z</time>
      </trkpt>
      <trkpt lat="46.92938" lon="-0.93373">
        <ele>183</ele>
        <time>2011-11-11T20:51:55Z</time>
      </trkpt>
      <trkpt lat="46.92939" lon="-0.93408">
        <ele>181</ele>
        <time>2011-11-11T20:51:59Z</time>
      </trkpt>
      <trkpt lat="46.92935" lon="-0.93451">
        <ele>181</ele>
        <time>2011-11-11T20:52:04Z</time>
      </trkpt>
      <trkpt lat="46.92902" lon="-0.93605">
        <ele>178</ele>
        <time>2011-11-11T20:52:21Z</time>
      </trkpt>
      <trkpt lat="46.9291" lon="-0.93692">
        <ele>175</ele>
        <time>2011-11-11T20:52:31Z</time>
      </trkpt>
      <trkpt lat="46.92894" lon="-0.93789">
        <ele>174</ele>
        <time>2011-11-11T20:52:42Z</time>
      </trkpt>
      <trkpt lat="46.92895" lon="-0.93819">
        <ele>173</ele>
        <time>2011-11-11T20:52:45Z</time>
      </trkpt>
      <trkpt lat="46.92905" lon="-0.93844">
        <ele>173</ele>
        <time>2011-11-11T20:52:48Z</time>
      </trkpt>
      <trkpt lat="46.92947" lon="-0.93907">
        <ele>169</ele>
        <time>2011-11-11T20:52:58Z</time>
      </trkpt>
      <trkpt lat="46.92998" lon="-0.93936">
        <ele>169</ele>
        <time>2011-11-11T20:53:07Z</time>
      </trkpt>
      <trkpt lat="46.93026" lon="-0.93965">
        <ele>162</ele>
        <time>2011-11-11T20:53:12Z</time>
      </trkpt>
      <trkpt lat="46.93067" lon="-0.94057">
        <ele>157</ele>
        <time>2011-11-11T20:53:24Z</time>
      </trkpt>
      <trkpt lat="46.93074" lon="-0.94083">
        <ele>157</ele>
        <time>2011-11-11T20:53:27Z</time>
      </trkpt>
      <trkpt lat="46.93074" lon="-0.94109">
        <ele>157</ele>
        <time>2011-11-11T20:53:30Z</time>
      </trkpt>
      <trkpt lat="46.9304" lon="-0.94403">
        <ele>161</ele>
        <time>2011-11-11T20:54:03Z</time>
      </trkpt>
      <trkpt lat="46.93025" lon="-0.94446">
        <ele>161</ele>
        <time>2011-11-11T20:54:08Z</time>
      </trkpt>
      <trkpt lat="46.92997" lon="-0.94476">
        <ele>162</ele>
        <time>2011-11-11T20:54:13Z</time>
      </trkpt>
      <trkpt lat="46.92963" lon="-0.94488">
        <ele>162</ele>
        <time>2011-11-11T20:54:19Z</time>
      </trkpt>
      <trkpt lat="46.92896" lon="-0.9449">
        <ele>164</ele>
        <time>2011-11-11T20:54:30Z</time>
      </trkpt>
      <trkpt lat="46.92881" lon="-0.94497">
        <ele>164</ele>
        <time>2011-11-11T20:54:32Z</time>
      </trkpt>
      <trkpt lat="46.92867" lon="-0.94516">
        <ele>167</ele>
        <time>2011-11-11T20:54:35Z</time>
      </trkpt>
      <trkpt lat="46.92785" lon="-0.9469">
        <ele>178</ele>
        <time>2011-11-11T20:54:58Z</time>
      </trkpt>
      <trkpt lat="46.92753" lon="-0.94744">
        <ele>182</ele>
        <time>2011-11-11T20:55:06Z</time>
      </trkpt>
      <trkpt lat="46.92638" lon="-0.94963">
        <ele>188</ele>
        <time>2011-11-11T20:55:36Z</time>
      </trkpt>
      <trkpt lat="46.92547" lon="-0.95224">
        <ele>205</ele>
        <time>2011-11-11T20:56:09Z</time>
      </trkpt>
      <trkpt lat="46.92547" lon="-0.95224">
        <ele>205</ele>
        <time>2011-11-11T20:56:09Z</time>
      </trkpt>
      <trkpt lat="46.92525" lon="-0.95273">
        <ele>204</ele>
        <time>2011-11-11T20:56:15Z</time>
      </trkpt>
      <trkpt lat="46.92499" lon="-0.95313">
        <ele>205</ele>
        <time>2011-11-11T20:56:21Z</time>
      </trkpt>
      <trkpt lat="46.92399" lon="-0.95413">
        <ele>205</ele>
        <time>2011-11-11T20:56:40Z</time>
      </trkpt>
      <trkpt lat="46.92368" lon="-0.95513">
        <ele>205</ele>
        <time>2011-11-11T20:56:52Z</time>
      </trkpt>
      <trkpt lat="46.9234" lon="-0.95622">
        <ele>207</ele>
        <time>2011-11-11T20:57:05Z</time>
      </trkpt>
      <trkpt lat="46.9234" lon="-0.95659">
        <ele>208</ele>
        <time>2011-11-11T20:57:09Z</time>
      </trkpt>
      <trkpt lat="46.92348" lon="-0.95721">
        <ele>208</ele>
        <time>2011-11-11T20:57:16Z</time>
      </trkpt>
      <trkpt lat="46.92348" lon="-0.95721">
        <ele>208</ele>
        <time>2011-11-11T20:57:16Z</time>
      </trkpt>
      <trkpt lat="46.9237" lon="-0.95837">
        <ele>209</ele>
        <time>2011-11-11T20:57:29Z</time>
      </trkpt>
      <trkpt lat="46.92371" lon="-0.95874">
        <ele>209</ele>
        <time>2011-11-11T20:57:33Z</time>
      </trkpt>
      <trkpt lat="46.92351" lon="-0.96071">
        <ele>201</ele>
        <time>2011-11-11T20:57:55Z</time>
      </trkpt>
      <trkpt lat="46.92343" lon="-0.96114">
        <ele>201</ele>
        <time>2011-11-11T20:58:00Z</time>
      </trkpt>
      <trkpt lat="46.92285" lon="-0.96269">
        <ele>198</ele>
        <time>2011-11-11T20:58:19Z</time>
      </trkpt>
      <trkpt lat="46.92278" lon="-0.96281">
        <ele>198</ele>
        <time>2011-11-11T20:58:21Z</time>
      </trkpt>
      <trkpt lat="46.92272" lon="-0.96282">
        <ele>198</ele>
        <time>2011-11-11T20:58:22Z</time>
      </trkpt>
      <trkpt lat="46.92267" lon="-0.96314">
        <ele>196</ele>
        <time>2011-11-11T20:58:26Z</time>
      </trkpt>
      <trkpt lat="46.92208" lon="-0.96413">
        <ele>202</ele>
        <time>2011-11-11T20:58:40Z</time>
      </trkpt>
      <trkpt lat="46.92198" lon="-0.96436">
        <ele>202</ele>
        <time>2011-11-11T20:58:43Z</time>
      </trkpt>
      <trkpt lat="46.92177" lon="-0.96525">
        <ele>202</ele>
        <time>2011-11-11T20:58:53Z</time>
      </trkpt>
      <trkpt lat="46.9218" lon="-0.96575">
        <ele>202</ele>
        <time>2011-11-11T20:58:59Z</time>
      </trkpt>
      <trkpt lat="46.92206" lon="-0.96636">
        <ele>202</ele>
        <time>2011-11-11T20:59:07Z</time>
      </trkpt>
      <trkpt lat="46.92215" lon="-0.96681">
        <ele>196</ele>
        <time>2011-11-11T20:59:12Z</time>
      </trkpt>
      <trkpt lat="46.92216" lon="-0.96707">
        <ele>196</ele>
        <time>2011-11-11T20:59:15Z</time>
      </trkpt>
      <trkpt lat="46.92208" lon="-0.96812">
        <ele>198</ele>
        <time>2011-11-11T20:59:26Z</time>
      </trkpt>
      <trkpt lat="46.92219" lon="-0.96929">
        <ele>193</ele>
        <time>2011-11-11T20:59:39Z</time>
      </trkpt>
      <trkpt lat="46.92226" lon="-0.96969">
        <ele>199</ele>
        <time>2011-11-11T20:59:44Z</time>
      </trkpt>
      <trkpt lat="46.92245" lon="-0.97025">
        <ele>199</ele>
        <time>2011-11-11T20:59:50Z</time>
      </trkpt>
      <trkpt lat="46.92328" lon="-0.97192">
        <ele>204</ele>
        <time>2011-11-11T21:00:13Z</time>
      </trkpt>
      <trkpt lat="46.92328" lon="-0.97211">
        <ele>207</ele>
        <time>2011-11-11T21:00:15Z</time>
      </trkpt>
      <trkpt lat="46.9231" lon="-0.9728">
        <ele>207</ele>
        <time>2011-11-11T21:00:23Z</time>
      </trkpt>
      <trkpt lat="46.92315" lon="-0.97299">
        <ele>209</ele>
        <time>2011-11-11T21:00:25Z</time>
      </trkpt>
      <trkpt lat="46.92328" lon="-0.97323">
        <ele>209</ele>
        <time>2011-11-11T21:00:29Z</time>
      </trkpt>
      <trkpt lat="46.92412" lon="-0.9741">
        <ele>213</ele>
        <time>2011-11-11T21:00:45Z</time>
      </trkpt>
      <trkpt lat="46.92469" lon="-0.97493">
        <ele>207</ele>
        <time>2011-11-11T21:00:58Z</time>
      </trkpt>
      <trkpt lat="46.9252" lon="-0.97593">
        <ele>206</ele>
        <time>2011-11-11T21:01:12Z</time>
      </trkpt>
      <trkpt lat="46.92614" lon="-0.97812">
        <ele>195</ele>
        <time>2011-11-11T21:01:40Z</time>
      </trkpt>
      <trkpt lat="46.92698" lon="-0.97942">
        <ele>190</ele>
        <time>2011-11-11T21:02:00Z</time>
      </trkpt>
      <trkpt lat="46.92717" lon="-0.97981">
        <ele>188</ele>
        <time>2011-11-11T21:02:05Z</time>
      </trkpt>
      <trkpt lat="46.92736" lon="-0.98037">
        <ele>188</ele>
        <time>2011-11-11T21:02:12Z</time>
      </trkpt>
      <trkpt lat="46.92743" lon="-0.98071">
        <ele>188</ele>
        <time>2011-11-11T21:02:15Z</time>
      </trkpt>
      <trkpt lat="46.92756" lon="-0.98175">
        <ele>186</ele>
        <time>2011-11-11T21:02:27Z</time>
      </trkpt>
      <trkpt lat="46.92767" lon="-0.98227">
        <ele>184</ele>
        <time>2011-11-11T21:02:33Z</time>
      </trkpt>
      <trkpt lat="46.92792" lon="-0.98289">
        <ele>181</ele>
        <time>2011-11-11T21:02:41Z</time>
      </trkpt>
      <trkpt lat="46.92838" lon="-0.98373">
        <ele>184</ele>
        <time>2011-11-11T21:02:53Z</time>
      </trkpt>
      <trkpt lat="46.92863" lon="-0.98472">
        <ele>186</ele>
        <time>2011-11-11T21:03:04Z</time>
      </trkpt>
      <trkpt lat="46.92902" lon="-0.98657">
        <ele>184</ele>
        <time>2011-11-11T21:03:25Z</time>
      </trkpt>
      <trkpt lat="46.92908" lon="-0.98665">
        <ele>184</ele>
        <time>2011-11-11T21:03:27Z</time>
      </trkpt>
      <trkpt lat="46.9291" lon="-0.98677">
        <ele>184</ele>
        <time>2011-11-11T21:03:28Z</time>
      </trkpt>
      <trkpt lat="46.92907" lon="-0.98693">
        <ele>184</ele>
        <time>2011-11-11T21:03:30Z</time>
      </trkpt>
      <trkpt lat="46.92897" lon="-0.98702">
        <ele>184</ele>
        <time>2011-11-11T21:03:32Z</time>
      </trkpt>
      <trkpt lat="46.9289" lon="-0.98702">
        <ele>184</ele>
        <time>2011-11-11T21:03:33Z</time>
      </trkpt>
      <trkpt lat="46.9285" lon="-0.98762">
        <ele>184</ele>
        <time>2011-11-11T21:03:42Z</time>
      </trkpt>
      <trkpt lat="46.92823" lon="-0.98818">
        <ele>182</ele>
        <time>2011-11-11T21:03:49Z</time>
      </trkpt>
      <trkpt lat="46.92808" lon="-0.98866">
        <ele>182</ele>
        <time>2011-11-11T21:03:55Z</time>
      </trkpt>
      <trkpt lat="46.92798" lon="-0.98922">
        <ele>182</ele>
        <time>2011-11-11T21:04:02Z</time>
      </trkpt>
      <trkpt lat="46.92793" lon="-0.98999">
        <ele>180</ele>
        <time>2011-11-11T21:04:10Z</time>
      </trkpt>
      <trkpt lat="46.92795" lon="-0.99054">
        <ele>177</ele>
        <time>2011-11-11T21:04:16Z</time>
      </trkpt>
      <trkpt lat="46.928" lon="-0.99084">
        <ele>177</ele>
        <time>2011-11-11T21:04:19Z</time>
      </trkpt>
      <trkpt lat="46.92807" lon="-0.99103">
        <ele>177</ele>
        <time>2011-11-11T21:04:22Z</time>
      </trkpt>
      <trkpt lat="46.92806" lon="-0.99113">
        <ele>177</ele>
        <time>2011-11-11T21:04:23Z</time>
      </trkpt>
      <trkpt lat="46.92799" lon="-0.99126">
        <ele>175</ele>
        <time>2011-11-11T21:04:25Z</time>
      </trkpt>
      <trkpt lat="46.92786" lon="-0.99128">
        <ele>173</ele>
        <time>2011-11-11T21:04:27Z</time>
      </trkpt>
      <trkpt lat="46.92756" lon="-0.99158">
        <ele>173</ele>
        <time>2011-11-11T21:04:33Z</time>
      </trkpt>
      <trkpt lat="46.92733" lon="-0.9919">
        <ele>173</ele>
        <time>2011-11-11T21:04:38Z</time>
      </trkpt>
      <trkpt lat="46.92693" lon="-0.99256">
        <ele>168</ele>
        <time>2011-11-11T21:04:47Z</time>
      </trkpt>
      <trkpt lat="46.9267" lon="-0.99304">
        <ele>165</ele>
        <time>2011-11-11T21:04:54Z</time>
      </trkpt>
      <trkpt lat="46.92648" lon="-0.99379">
        <ele>161</ele>
        <time>2011-11-11T21:05:03Z</time>
      </trkpt>
      <trkpt lat="46.92599" lon="-0.99587">
        <ele>167</ele>
        <time>2011-11-11T21:05:27Z</time>
      </trkpt>
      <trkpt lat="46.92588" lon="-0.99644">
        <ele>171</ele>
        <time>2011-11-11T21:05:33Z</time>
      </trkpt>
      <trkpt lat="46.92585" lon="-0.99679">
        <ele>171</ele>
        <time>2011-11-11T21:05:37Z</time>
      </trkpt>
      <trkpt lat="46.92585" lon="-0.99801">
        <ele>169</ele>
        <time>2011-11-11T21:05:50Z</time>
      </trkpt>
      <trkpt lat="46.92593" lon="-0.99943">
        <ele>169</ele>
        <time>2011-11-11T21:06:06Z</time>
      </trkpt>
      <trkpt lat="46.92602" lon="-0.99998">
        <ele>172</ele>
        <time>2011-11-11T21:06:12Z</time>
      </trkpt>
      <trkpt lat="46.92602" lon="-0.99998">
        <ele>172</ele>
        <time>2011-11-11T21:06:12Z</time>
      </trkpt>
      <trkpt lat="46.92634" lon="-1.00113">
        <ele>169</ele>
        <time>2011-11-11T21:06:26Z</time>
      </trkpt>
      <trkpt lat="46.92737" lon="-1.00401">
        <ele>173</ele>
        <time>2011-11-11T21:07:01Z</time>
      </trkpt>
      <trkpt lat="46.92746" lon="-1.00455">
        <ele>173</ele>
        <time>2011-11-11T21:07:07Z</time>
      </trkpt>
      <trkpt lat="46.92746" lon="-1.00499">
        <ele>175</ele>
        <time>2011-11-11T21:07:12Z</time>
      </trkpt>
      <trkpt lat="46.92734" lon="-1.00585">
        <ele>178</ele>
        <time>2011-11-11T21:07:22Z</time>
      </trkpt>
      <trkpt lat="46.92697" lon="-1.00777">
        <ele>179</ele>
        <time>2011-11-11T21:07:44Z</time>
      </trkpt>
      <trkpt lat="46.92688" lon="-1.00809">
        <ele>176</ele>
        <time>2011-11-11T21:07:47Z</time>
      </trkpt>
      <trkpt lat="46.92665" lon="-1.00852">
        <ele>176</ele>
        <time>2011-11-11T21:07:53Z</time>
      </trkpt>
      <trkpt lat="46.92647" lon="-1.00875">
        <ele>176</ele>
        <time>2011-11-11T21:07:57Z</time>
      </trkpt>
      <trkpt lat="46.92542" lon="-1.00962">
        <ele>178</ele>
        <time>2011-11-11T21:08:17Z</time>
      </trkpt>
      <trkpt lat="46.92509" lon="-1.01002">
        <ele>181</ele>
        <time>2011-11-11T21:08:23Z</time>
      </trkpt>
      <trkpt lat="46.92497" lon="-1.01032">
        <ele>181</ele>
        <time>2011-11-11T21:08:27Z</time>
      </trkpt>
      <trkpt lat="46.92488" lon="-1.01073">
        <ele>181</ele>
        <time>2011-11-11T21:08:32Z</time>
      </trkpt>
      <trkpt lat="46.9247" lon="-1.01201">
        <ele>181</ele>
        <time>2011-11-11T21:08:46Z</time>
      </trkpt>
      <trkpt lat="46.92465" lon="-1.01288">
        <ele>181</ele>
        <time>2011-11-11T21:08:56Z</time>
      </trkpt>
      <trkpt lat="46.92493" lon="-1.01947">
        <ele>191</ele>
        <time>2011-11-11T21:10:08Z</time>
      </trkpt>
      <trkpt lat="46.92509" lon="-1.02433">
        <ele>188</ele>
        <time>2011-11-11T21:11:01Z</time>
      </trkpt>
      <trkpt lat="46.92518" lon="-1.02483">
        <ele>189</ele>
        <time>2011-11-11T21:11:07Z</time>
      </trkpt>
      <trkpt lat="46.92526" lon="-1.02507">
        <ele>189</ele>
        <time>2011-11-11T21:11:10Z</time>
      </trkpt>
      <trkpt lat="46.92595" lon="-1.02671">
        <ele>190</ele>
        <time>2011-11-11T21:11:31Z</time>
      </trkpt>
      <trkpt lat="46.92618" lon="-1.0274">
        <ele>189</ele>
        <time>2011-11-11T21:11:39Z</time>
      </trkpt>
      <trkpt lat="46.92695" lon="-1.03173">
        <ele>190</ele>
        <time>2011-11-11T21:12:28Z</time>
      </trkpt>
      <trkpt lat="46.92714" lon="-1.03234">
        <ele>192</ele>
        <time>2011-11-11T21:12:35Z</time>
      </trkpt>
      <trkpt lat="46.92764" lon="-1.03346">
        <ele>194</ele>
        <time>2011-11-11T21:12:50Z</time>
      </trkpt>
      <trkpt lat="46.92775" lon="-1.0339">
        <ele>195</ele>
        <time>2011-11-11T21:12:55Z</time>
      </trkpt>
      <trkpt lat="46.92779" lon="-1.03442">
        <ele>195</ele>
        <time>2011-11-11T21:13:01Z</time>
      </trkpt>
      <trkpt lat="46.92779" lon="-1.03509">
        <ele>196</ele>
        <time>2011-11-11T21:13:08Z</time>
      </trkpt>
      <trkpt lat="46.92786" lon="-1.03575">
        <ele>193</ele>
        <time>2011-11-11T21:13:16Z</time>
      </trkpt>
      <trkpt lat="46.92826" lon="-1.03672">
        <ele>192</ele>
        <time>2011-11-11T21:13:28Z</time>
      </trkpt>
      <trkpt lat="46.92853" lon="-1.03828">
        <ele>194</ele>
        <time>2011-11-11T21:13:46Z</time>
      </trkpt>
      <trkpt lat="46.92875" lon="-1.03898">
        <ele>195</ele>
        <time>2011-11-11T21:13:54Z</time>
      </trkpt>
      <trkpt lat="46.92901" lon="-1.0397">
        <ele>196</ele>
        <time>2011-11-11T21:14:03Z</time>
      </trkpt>
      <trkpt lat="46.92935" lon="-1.04046">
        <ele>197</ele>
        <time>2011-11-11T21:14:13Z</time>
      </trkpt>
      <trkpt lat="46.92948" lon="-1.04087">
        <ele>197</ele>
        <time>2011-11-11T21:14:18Z</time>
      </trkpt>
      <trkpt lat="46.92977" lon="-1.04291">
        <ele>195</ele>
        <time>2011-11-11T21:14:41Z</time>
      </trkpt>
      <trkpt lat="46.9303" lon="-1.04421">
        <ele>195</ele>
        <time>2011-11-11T21:14:57Z</time>
      </trkpt>
      <trkpt lat="46.93081" lon="-1.04593">
        <ele>194</ele>
        <time>2011-11-11T21:15:18Z</time>
      </trkpt>
      <trkpt lat="46.93129" lon="-1.04731">
        <ele>188</ele>
        <time>2011-11-11T21:15:35Z</time>
      </trkpt>
      <trkpt lat="46.9319" lon="-1.04872">
        <ele>189</ele>
        <time>2011-11-11T21:15:53Z</time>
      </trkpt>
      <trkpt lat="46.9319" lon="-1.04872">
        <ele>189</ele>
        <time>2011-11-11T21:15:53Z</time>
      </trkpt>
      <trkpt lat="46.93287" lon="-1.05048">
        <ele>192</ele>
        <time>2011-11-11T21:16:18Z</time>
      </trkpt>
      <trkpt lat="46.93356" lon="-1.05239">
        <ele>192</ele>
        <time>2011-11-11T21:16:41Z</time>
      </trkpt>
      <trkpt lat="46.93485" lon="-1.05535">
        <ele>188</ele>
        <time>2011-11-11T21:17:20Z</time>
      </trkpt>
      <trkpt lat="46.93506" lon="-1.05572">
        <ele>188</ele>
        <time>2011-11-11T21:17:25Z</time>
      </trkpt>
      <trkpt lat="46.93561" lon="-1.05651">
        <ele>184</ele>
        <time>2011-11-11T21:17:37Z</time>
      </trkpt>
      <trkpt lat="46.93565" lon="-1.05664">
        <ele>184</ele>
        <time>2011-11-11T21:17:39Z</time>
      </trkpt>
      <trkpt lat="46.93563" lon="-1.0567">
        <ele>184</ele>
        <time>2011-11-11T21:17:39Z</time>
      </trkpt>
      <trkpt lat="46.93404" lon="-1.05616">
        <ele>189</ele>
        <time>2011-11-11T21:18:06Z</time>
      </trkpt>
      <trkpt lat="46.93209" lon="-1.05525">
        <ele>190</ele>
        <time>2011-11-11T21:18:38Z</time>
      </trkpt>
      <trkpt lat="46.93185" lon="-1.0552">
        <ele>186</ele>
        <time>2011-11-11T21:18:42Z</time>
      </trkpt>
      <trkpt lat="46.9317" lon="-1.05532">
        <ele>186</ele>
        <time>2011-11-11T21:18:45Z</time>
      </trkpt>
      <trkpt lat="46.93161" lon="-1.05529">
        <ele>186</ele>
        <time>2011-11-11T21:18:46Z</time>
      </trkpt>
      <trkpt lat="46.9314" lon="-1.05495">
        <ele>186</ele>
        <time>2011-11-11T21:18:51Z</time>
      </trkpt>
      <trkpt lat="46.93122" lon="-1.05482">
        <ele>183</ele>
        <time>2011-11-11T21:18:55Z</time>
      </trkpt>
      <trkpt lat="46.92437" lon="-1.05146">
        <ele>170</ele>
        <time>2011-11-11T21:20:50Z</time>
      </trkpt>
      <trkpt lat="46.92437" lon="-1.05146">
        <ele>170</ele>
        <time>2011-11-11T21:20:50Z</time>
      </trkpt>
      <trkpt lat="46.91836" lon="-1.04851">
        <ele>150</ele>
        <time>2011-11-11T21:22:32Z</time>
      </trkpt>
      <trkpt lat="46.91569" lon="-1.04703">
        <ele>135</ele>
        <time>2011-11-11T21:23:18Z</time>
      </trkpt>
      <trkpt lat="46.91106" lon="-1.04477">
        <ele>123</ele>
        <time>2011-11-11T21:24:36Z</time>
      </trkpt>
      <trkpt lat="46.91044" lon="-1.04456">
        <ele>123</ele>
        <time>2011-11-11T21:24:46Z</time>
      </trkpt>
      <trkpt lat="46.90937" lon="-1.04436">
        <ele>114</ele>
        <time>2011-11-11T21:25:03Z</time>
      </trkpt>
      <trkpt lat="46.9086" lon="-1.04435">
        <ele>118</ele>
        <time>2011-11-11T21:25:15Z</time>
      </trkpt>
      <trkpt lat="46.90794" lon="-1.04441">
        <ele>118</ele>
        <time>2011-11-11T21:25:26Z</time>
      </trkpt>
      <trkpt lat="46.90794" lon="-1.04441">
        <ele>118</ele>
        <time>2011-11-11T21:25:26Z</time>
      </trkpt>
      <trkpt lat="46.90619" lon="-1.04455">
        <ele>125</ele>
        <time>2011-11-11T21:25:54Z</time>
      </trkpt>
      <trkpt lat="46.90537" lon="-1.04452">
        <ele>126</ele>
        <time>2011-11-11T21:26:07Z</time>
      </trkpt>
      <trkpt lat="46.90467" lon="-1.0444">
        <ele>126</ele>
        <time>2011-11-11T21:26:19Z</time>
      </trkpt>
      <trkpt lat="46.90421" lon="-1.04425">
        <ele>124</ele>
        <time>2011-11-11T21:26:26Z</time>
      </trkpt>
      <trkpt lat="46.9033" lon="-1.04389">
        <ele>122</ele>
        <time>2011-11-11T21:26:41Z</time>
      </trkpt>
      <trkpt lat="46.90238" lon="-1.04344">
        <ele>122</ele>
        <time>2011-11-11T21:26:57Z</time>
      </trkpt>
      <trkpt lat="46.90205" lon="-1.04341">
        <ele>118</ele>
        <time>2011-11-11T21:27:02Z</time>
      </trkpt>
      <trkpt lat="46.90197" lon="-1.04345">
        <ele>118</ele>
        <time>2011-11-11T21:27:03Z</time>
      </trkpt>
      <trkpt lat="46.90184" lon="-1.04362">
        <ele>118</ele>
        <time>2011-11-11T21:27:06Z</time>
      </trkpt>
      <trkpt lat="46.90168" lon="-1.04362">
        <ele>118</ele>
        <time>2011-11-11T21:27:09Z</time>
      </trkpt>
      <trkpt lat="46.90158" lon="-1.04348">
        <ele>118</ele>
        <time>2011-11-11T21:27:11Z</time>
      </trkpt>
      <trkpt lat="46.90155" lon="-1.04335">
        <ele>118</ele>
        <time>2011-11-11T21:27:12Z</time>
      </trkpt>
      <trkpt lat="46.90116" lon="-1.04303">
        <ele>118</ele>
        <time>2011-11-11T21:27:20Z</time>
      </trkpt>
      <trkpt lat="46.8988" lon="-1.0419">
        <ele>124</ele>
        <time>2011-11-11T21:27:59Z</time>
      </trkpt>
      <trkpt lat="46.89138" lon="-1.03791">
        <ele>117</ele>
        <time>2011-11-11T21:30:06Z</time>
      </trkpt>
      <trkpt lat="46.8906" lon="-1.03742">
        <ele>115</ele>
        <time>2011-11-11T21:30:20Z</time>
      </trkpt>
      <trkpt lat="46.88951" lon="-1.03653">
        <ele>115</ele>
        <time>2011-11-11T21:30:40Z</time>
      </trkpt>
      <trkpt lat="46.8893" lon="-1.03631">
        <ele>115</ele>
        <time>2011-11-11T21:30:44Z</time>
      </trkpt>
      <trkpt lat="46.88889" lon="-1.03613">
        <ele>115</ele>
        <time>2011-11-11T21:30:50Z</time>
      </trkpt>
      <trkpt lat="46.88884" lon="-1.03618">
        <ele>115</ele>
        <time>2011-11-11T21:30:51Z</time>
      </trkpt>
      <trkpt lat="46.88874" lon="-1.03617">
        <ele>114</ele>
        <time>2011-11-11T21:30:53Z</time>
      </trkpt>
      <trkpt lat="46.88866" lon="-1.03609">
        <ele>114</ele>
        <time>2011-11-11T21:30:55Z</time>
      </trkpt>
      <trkpt lat="46.88862" lon="-1.03595">
        <ele>114</ele>
        <time>2011-11-11T21:30:56Z</time>
      </trkpt>
      <trkpt lat="46.88865" lon="-1.03576">
        <ele>114</ele>
        <time>2011-11-11T21:30:58Z</time>
      </trkpt>
      <trkpt lat="46.88863" lon="-1.03549">
        <ele>114</ele>
        <time>2011-11-11T21:31:01Z</time>
      </trkpt>
      <trkpt lat="46.88847" lon="-1.03475">
        <ele>116</ele>
        <time>2011-11-11T21:31:10Z</time>
      </trkpt>
      <trkpt lat="46.88842" lon="-1.03423">
        <ele>119</ele>
        <time>2011-11-11T21:31:16Z</time>
      </trkpt>
      <trkpt lat="46.88846" lon="-1.03258">
        <ele>123</ele>
        <time>2011-11-11T21:31:34Z</time>
      </trkpt>
      <trkpt lat="46.88833" lon="-1.03157">
        <ele>123</ele>
        <time>2011-11-11T21:31:45Z</time>
      </trkpt>
      <trkpt lat="46.88818" lon="-1.031">
        <ele>127</ele>
        <time>2011-11-11T21:31:52Z</time>
      </trkpt>
      <trkpt lat="46.88793" lon="-1.03036">
        <ele>130</ele>
        <time>2011-11-11T21:32:00Z</time>
      </trkpt>
      <trkpt lat="46.88752" lon="-1.02973">
        <ele>126</ele>
        <time>2011-11-11T21:32:09Z</time>
      </trkpt>
      <trkpt lat="46.8872" lon="-1.02938">
        <ele>128</ele>
        <time>2011-11-11T21:32:16Z</time>
      </trkpt>
      <trkpt lat="46.88689" lon="-1.02912">
        <ele>129</ele>
        <time>2011-11-11T21:32:21Z</time>
      </trkpt>
      <trkpt lat="46.88219" lon="-1.0256">
        <ele>124</ele>
        <time>2011-11-11T21:33:46Z</time>
      </trkpt>
      <trkpt lat="46.88196" lon="-1.02547">
        <ele>121</ele>
        <time>2011-11-11T21:33:50Z</time>
      </trkpt>
      <trkpt lat="46.8819" lon="-1.02552">
        <ele>121</ele>
        <time>2011-11-11T21:33:51Z</time>
      </trkpt>
      <trkpt lat="46.88179" lon="-1.02548">
        <ele>121</ele>
        <time>2011-11-11T21:33:53Z</time>
      </trkpt>
      <trkpt lat="46.88174" lon="-1.02539">
        <ele>123</ele>
        <time>2011-11-11T21:33:54Z</time>
      </trkpt>
      <trkpt lat="46.88174" lon="-1.0253">
        <ele>123</ele>
        <time>2011-11-11T21:33:55Z</time>
      </trkpt>
      <trkpt lat="46.88147" lon="-1.02505">
        <ele>123</ele>
        <time>2011-11-11T21:34:00Z</time>
      </trkpt>
      <trkpt lat="46.87986" lon="-1.0239">
        <ele>120</ele>
        <time>2011-11-11T21:34:29Z</time>
      </trkpt>
      <trkpt lat="46.8787" lon="-1.02296">
        <ele>121</ele>
        <time>2011-11-11T21:34:50Z</time>
      </trkpt>
      <trkpt lat="46.87696" lon="-1.02168">
        <ele>117</ele>
        <time>2011-11-11T21:35:21Z</time>
      </trkpt>
      <trkpt lat="46.87635" lon="-1.02118">
        <ele>118</ele>
        <time>2011-11-11T21:35:32Z</time>
      </trkpt>
      <trkpt lat="46.87311" lon="-1.01879">
        <ele>109</ele>
        <time>2011-11-11T21:36:31Z</time>
      </trkpt>
      <trkpt lat="46.87192" lon="-1.01786">
        <ele>114</ele>
        <time>2011-11-11T21:36:52Z</time>
      </trkpt>
      <trkpt lat="46.8709" lon="-1.01716">
        <ele>114</ele>
        <time>2011-11-11T21:37:10Z</time>
      </trkpt>
      <trkpt lat="46.87076" lon="-1.01715">
        <ele>114</ele>
        <time>2011-11-11T21:37:12Z</time>
      </trkpt>
      <trkpt lat="46.871" lon="-1.01562">
        <ele>110</ele>
        <time>2011-11-11T21:37:30Z</time>
      </trkpt>
      <trkpt lat="46.87109" lon="-1.01531">
        <ele>110</ele>
        <time>2011-11-11T21:37:33Z</time>
      </trkpt>
      <trkpt lat="46.87117" lon="-1.0132">
        <ele>108</ele>
        <time>2011-11-11T21:37:56Z</time>
      </trkpt>
      <trkpt lat="46.87098" lon="-1.01244">
        <ele>105</ele>
        <time>2011-11-11T21:38:05Z</time>
      </trkpt>
      <trkpt lat="46.86991" lon="-1.00888">
        <ele>103</ele>
        <time>2011-11-11T21:38:48Z</time>
      </trkpt>
      <trkpt lat="46.86946" lon="-1.00667">
        <ele>106</ele>
        <time>2011-11-11T21:39:13Z</time>
      </trkpt>
      <trkpt lat="46.86854" lon="-1.00631">
        <ele>113</ele>
        <time>2011-11-11T21:39:28Z</time>
      </trkpt>
      <trkpt lat="46.86836" lon="-1.00631">
        <ele>113</ele>
        <time>2011-11-11T21:39:31Z</time>
      </trkpt>
      <trkpt lat="46.86711" lon="-1.00669">
        <ele>114</ele>
        <time>2011-11-11T21:39:52Z</time>
      </trkpt>
      <trkpt lat="46.8664" lon="-1.00715">
        <ele>111</ele>
        <time>2011-11-11T21:40:04Z</time>
      </trkpt>
      <trkpt lat="46.86451" lon="-1.00902">
        <ele>117</ele>
        <time>2011-11-11T21:40:41Z</time>
      </trkpt>
    </trkseg>
  </trk>
</gpx>